ACA2 RJTT-CYYZ
Flight info
| Callsign | ACA2 |
|---|---|
| Flight time | 11h 28m |
| Altitude | 33000 |
| Route | INUBO Y808 PUTER A590 HAMND DCT JAGIT DCT YXY J515 YQH DCT 59N120W DCT YOJ DCT PETMA DCT 54N100W DCT TADIS DCT TUDAN BOXUM7 |
| Aircraft | B77L/H-SDE1E2E3FGHIJ2J3J4J5M1RWXY/LB1D1 |
Departure
| Time | 2026-05-04 06:06 |
|---|---|
| Airport | Tokyo Haneda International Airport (RJTT) |
Arrival
| Time | 2026-05-04 17:35 |
|---|---|
| Airport | Toronto Pearson International Airport (CYYZ) |
| Time | Latitude | Longitude | Altitude | Speed | Heading |
|---|---|---|---|---|---|
| 2026-05-04 05:48 | 35.54832 | 139.76578 | 27 ft | 0 kts | 149° |
| 2026-05-04 06:00 | 35.54835 | 139.76577 | 26 ft | 3 kts | 149° |
| 2026-05-04 06:00 | 35.54855 | 139.76557 | 27 ft | 4 kts | 127° |
| 2026-05-04 06:00 | 35.54866 | 139.76529 | 25 ft | 4 kts | 91° |
| 2026-05-04 06:01 | 35.54864 | 139.76508 | 26 ft | 0 kts | 62° |
| 2026-05-04 06:03 | 35.54905 | 139.76595 | 27 ft | 13 kts | 58° |
| 2026-05-04 06:03 | 35.54981 | 139.76627 | 27 ft | 13 kts | 340° |
| 2026-05-04 06:05 | 35.55815 | 139.76927 | 29 ft | 19 kts | 10° |
| 2026-05-04 06:05 | 35.55695 | 139.77124 | 29 ft | 55 kts | 150° |
| 2026-05-04 06:05 | 35.55179 | 139.77489 | 29 ft | 117 kts | 150° |
| 2026-05-04 06:06 | 35.54326 | 139.78101 | 33 ft | 163 kts | 148° |
| 2026-05-04 06:06 | 35.53366 | 139.78842 | 488 ft | 161 kts | 156° |
| 2026-05-04 06:06 | 35.52370 | 139.79543 | 883 ft | 171 kts | 159° |
| 2026-05-04 06:06 | 35.51288 | 139.80227 | 1308 ft | 178 kts | 159° |
| 2026-05-04 06:07 | 35.50193 | 139.80997 | 1756 ft | 187 kts | 160° |
| 2026-05-04 06:07 | 35.49001 | 139.81839 | 1935 ft | 208 kts | 162° |
| 2026-05-04 06:07 | 35.47671 | 139.82773 | 2112 ft | 233 kts | 161° |
| 2026-05-04 06:07 | 35.46207 | 139.83807 | 2398 ft | 251 kts | 160° |
| 2026-05-04 06:08 | 35.44810 | 139.85260 | 2746 ft | 283 kts | 132° |
| 2026-05-04 06:08 | 35.44146 | 139.87623 | 3327 ft | 308 kts | 96° |
| 2026-05-04 06:08 | 35.44571 | 139.90228 | 3946 ft | 318 kts | 61° |
| 2026-05-04 06:08 | 35.45778 | 139.92460 | 4625 ft | 312 kts | 52° |
| 2026-05-04 06:09 | 35.46990 | 139.94695 | 5222 ft | 317 kts | 55° |
| 2026-05-04 06:09 | 35.48224 | 139.96883 | 5751 ft | 316 kts | 40° |
| 2026-05-04 06:11 | 35.61833 | 139.95919 | 9945 ft | 309 kts | 346° |
| 2026-05-04 06:11 | 35.64065 | 139.96008 | 10336 ft | 333 kts | 354° |
| 2026-05-04 06:13 | 35.82181 | 139.92818 | 13083 ft | 403 kts | 328° |
| 2026-05-04 06:14 | 35.98467 | 139.85154 | 16739 ft | 429 kts | 327° |
| 2026-05-04 06:14 | 36.01271 | 139.83828 | 17328 ft | 433 kts | 327° |
| 2026-05-04 06:15 | 36.04102 | 139.82479 | 17860 ft | 438 kts | 327° |
| 2026-05-04 06:15 | 36.06926 | 139.81124 | 18362 ft | 442 kts | 327° |
| 2026-05-04 06:15 | 36.09805 | 139.79737 | 18901 ft | 445 kts | 326° |
| 2026-05-04 06:15 | 36.12696 | 139.78339 | 19451 ft | 447 kts | 326° |
| 2026-05-04 06:16 | 36.15599 | 139.76929 | 19976 ft | 450 kts | 326° |
| 2026-05-04 06:16 | 36.18528 | 139.75501 | 20490 ft | 453 kts | 326° |
| 2026-05-04 06:16 | 36.21477 | 139.74055 | 20994 ft | 456 kts | 326° |
| 2026-05-04 06:16 | 36.24430 | 139.72602 | 21560 ft | 458 kts | 326° |
| 2026-05-04 06:17 | 36.27399 | 139.71136 | 22075 ft | 460 kts | 325° |
| 2026-05-04 06:17 | 36.30342 | 139.69677 | 22540 ft | 463 kts | 325° |
| 2026-05-04 06:17 | 36.33348 | 139.68180 | 22972 ft | 467 kts | 325° |
| 2026-05-04 06:17 | 36.36376 | 139.66664 | 23341 ft | 471 kts | 325° |
| 2026-05-04 06:18 | 36.39416 | 139.65136 | 23734 ft | 473 kts | 325° |
| 2026-05-04 06:18 | 36.42493 | 139.63582 | 24073 ft | 477 kts | 325° |
| 2026-05-04 06:18 | 36.45570 | 139.62018 | 24451 ft | 480 kts | 325° |
| 2026-05-04 06:20 | 36.67531 | 139.50702 | 27147 ft | 497 kts | 324° |
| 2026-05-04 06:20 | 36.70684 | 139.49056 | 27610 ft | 497 kts | 324° |
| 2026-05-04 06:21 | 36.83565 | 139.42260 | 29017 ft | 508 kts | 323° |
| 2026-05-04 06:21 | 36.86820 | 139.40526 | 29442 ft | 509 kts | 323° |
| 2026-05-04 06:22 | 36.90085 | 139.38781 | 29766 ft | 510 kts | 323° |
| 2026-05-04 06:22 | 36.93349 | 139.37038 | 30168 ft | 509 kts | 323° |
| 2026-05-04 06:25 | 37.34748 | 139.15219 | 33162 ft | 492 kts | 322° |
| 2026-05-04 06:26 | 37.41082 | 139.11903 | 33178 ft | 494 kts | 322° |
| 2026-05-04 06:26 | 37.47435 | 139.08556 | 33209 ft | 495 kts | 322° |
| 2026-05-04 06:27 | 37.63426 | 139.00459 | 33170 ft | 509 kts | 331° |
| 2026-05-04 06:28 | 37.66970 | 138.99647 | 33168 ft | 527 kts | 340° |
| 2026-05-04 06:28 | 37.70696 | 138.99466 | 33149 ft | 544 kts | 349° |
| 2026-05-04 06:28 | 37.74465 | 138.99933 | 33143 ft | 559 kts | 358° |
| 2026-05-04 06:28 | 37.78297 | 139.01069 | 33130 ft | 573 kts | 7° |
| 2026-05-04 06:29 | 37.82065 | 139.02863 | 33169 ft | 586 kts | 16° |
| 2026-05-04 06:29 | 37.85698 | 139.05302 | 33141 ft | 597 kts | 25° |
| 2026-05-04 06:29 | 37.92241 | 139.11964 | 33147 ft | 611 kts | 43° |
| 2026-05-04 06:30 | 37.97376 | 139.20598 | 33153 ft | 616 kts | 61° |
| 2026-05-04 06:30 | 38.00688 | 139.30550 | 33155 ft | 611 kts | 79° |
| 2026-05-04 06:31 | 38.02110 | 139.41064 | 33173 ft | 602 kts | 91° |
| 2026-05-04 06:31 | 38.02816 | 139.51622 | 33160 ft | 600 kts | 93° |
| 2026-05-04 06:33 | 38.05061 | 139.93484 | 33107 ft | 590 kts | 93° |
| 2026-05-04 06:34 | 38.05579 | 140.03862 | 33103 ft | 587 kts | 93° |
| 2026-05-04 06:34 | 38.06087 | 140.14142 | 32981 ft | 582 kts | 93° |
| 2026-05-04 06:36 | 38.08052 | 140.55095 | 32604 ft | 581 kts | 93° |
| 2026-05-04 06:37 | 38.08532 | 140.65347 | 32553 ft | 583 kts | 94° |
| 2026-05-04 06:37 | 38.09120 | 140.75595 | 32545 ft | 588 kts | 91° |
| 2026-05-04 06:38 | 38.09936 | 140.85965 | 32526 ft | 590 kts | 91° |
| 2026-05-04 06:40 | 38.12723 | 141.25676 | 32549 ft | 585 kts | 92° |
| 2026-05-04 06:40 | 38.13397 | 141.35940 | 32564 ft | 582 kts | 92° |
| 2026-05-04 06:41 | 38.14061 | 141.46158 | 32568 ft | 580 kts | 92° |
| 2026-05-04 06:41 | 38.14715 | 141.56367 | 32569 ft | 578 kts | 92° |
| 2026-05-04 06:42 | 38.15353 | 141.66480 | 32568 ft | 579 kts | 92° |
| 2026-05-04 06:44 | 38.17849 | 142.07391 | 32571 ft | 582 kts | 92° |
| 2026-05-04 06:44 | 38.18455 | 142.17679 | 32565 ft | 583 kts | 92° |
| 2026-05-04 06:45 | 38.19051 | 142.27952 | 32565 ft | 583 kts | 92° |
| 2026-05-04 06:45 | 38.19634 | 142.38172 | 32561 ft | 582 kts | 92° |
| 2026-05-04 06:46 | 38.20211 | 142.48420 | 32557 ft | 581 kts | 92° |
| 2026-05-04 06:46 | 38.20778 | 142.58669 | 32559 ft | 580 kts | 92° |
| 2026-05-04 06:48 | 38.22951 | 142.99564 | 32521 ft | 579 kts | 92° |
| 2026-05-04 06:50 | 38.24972 | 143.40262 | 32550 ft | 574 kts | 92° |
| 2026-05-04 06:51 | 38.25453 | 143.50392 | 32525 ft | 573 kts | 92° |
| 2026-05-04 06:51 | 38.25921 | 143.60440 | 32514 ft | 571 kts | 92° |
| 2026-05-04 06:52 | 38.26384 | 143.70543 | 32538 ft | 570 kts | 92° |
| 2026-05-04 06:52 | 38.26836 | 143.80629 | 32542 ft | 570 kts | 92° |
| 2026-05-04 06:53 | 38.27277 | 143.90635 | 32539 ft | 570 kts | 92° |
| 2026-05-04 06:53 | 38.27712 | 144.00718 | 32544 ft | 570 kts | 92° |
| 2026-05-04 06:54 | 38.28138 | 144.10797 | 32541 ft | 571 kts | 92° |
| 2026-05-04 06:54 | 38.28556 | 144.20894 | 32527 ft | 571 kts | 92° |
| 2026-05-04 06:55 | 38.28966 | 144.30987 | 32543 ft | 570 kts | 92° |
| 2026-05-04 06:55 | 38.29367 | 144.41076 | 32540 ft | 570 kts | 92° |
| 2026-05-04 06:57 | 38.30879 | 144.81280 | 32538 ft | 567 kts | 92° |
| 2026-05-04 06:58 | 38.31234 | 144.91301 | 32560 ft | 566 kts | 92° |
| 2026-05-04 06:58 | 38.31580 | 145.01296 | 32567 ft | 565 kts | 92° |
| 2026-05-04 06:59 | 38.31917 | 145.11278 | 32576 ft | 564 kts | 92° |
| 2026-05-04 06:59 | 38.32245 | 145.21257 | 32580 ft | 563 kts | 92° |
| 2026-05-04 07:01 | 38.36306 | 145.55311 | 32604 ft | 571 kts | 53° |
| 2026-05-04 07:01 | 38.38907 | 145.59116 | 32599 ft | 564 kts | 39° |
| 2026-05-04 07:02 | 38.44808 | 145.65725 | 32592 ft | 567 kts | 38° |
| 2026-05-04 07:02 | 38.50662 | 145.72458 | 32605 ft | 571 kts | 39° |
| 2026-05-04 07:03 | 38.56515 | 145.79367 | 32603 ft | 574 kts | 40° |
| 2026-05-04 07:03 | 38.62363 | 145.86335 | 32599 ft | 574 kts | 40° |
| 2026-05-04 07:04 | 38.68193 | 145.93285 | 32594 ft | 572 kts | 40° |
| 2026-05-04 07:04 | 38.74015 | 146.00227 | 32594 ft | 571 kts | 40° |
| 2026-05-04 07:05 | 38.79778 | 146.07109 | 32591 ft | 568 kts | 40° |
| 2026-05-04 07:05 | 38.85556 | 146.14025 | 32590 ft | 566 kts | 40° |
| 2026-05-04 07:06 | 38.94195 | 146.24398 | 32597 ft | 565 kts | 40° |
| 2026-05-04 07:07 | 38.99908 | 146.31278 | 32603 ft | 566 kts | 40° |
| 2026-05-04 07:09 | 39.22944 | 146.59183 | 32596 ft | 570 kts | 40° |
| 2026-05-04 07:09 | 39.28707 | 146.66206 | 32602 ft | 570 kts | 41° |
| 2026-05-04 07:10 | 39.34478 | 146.73256 | 32614 ft | 571 kts | 41° |
| 2026-05-04 07:12 | 39.57579 | 147.01643 | 32606 ft | 574 kts | 41° |
| 2026-05-04 07:12 | 39.63358 | 147.08789 | 32619 ft | 574 kts | 41° |
| 2026-05-04 07:13 | 39.69144 | 147.15959 | 32615 ft | 575 kts | 41° |
| 2026-05-04 07:13 | 39.74940 | 147.23159 | 32622 ft | 577 kts | 41° |
| 2026-05-04 07:14 | 39.89425 | 147.41233 | 32630 ft | 578 kts | 41° |
| 2026-05-04 07:15 | 39.95221 | 147.48496 | 32662 ft | 578 kts | 41° |
| 2026-05-04 07:15 | 40.00990 | 147.55742 | 32637 ft | 580 kts | 41° |
| 2026-05-04 07:16 | 40.06800 | 147.63058 | 32639 ft | 580 kts | 41° |
| 2026-05-04 07:16 | 40.12603 | 147.70386 | 32639 ft | 580 kts | 41° |
| 2026-05-04 07:17 | 40.18398 | 147.77720 | 32638 ft | 579 kts | 41° |
| 2026-05-04 07:17 | 40.24178 | 147.85054 | 32638 ft | 578 kts | 41° |
| 2026-05-04 07:18 | 40.29939 | 147.92382 | 32649 ft | 578 kts | 41° |
| 2026-05-04 07:18 | 40.35710 | 147.99740 | 32651 ft | 578 kts | 41° |
| 2026-05-04 07:19 | 40.41441 | 148.07065 | 32654 ft | 579 kts | 41° |
| 2026-05-04 07:19 | 40.47202 | 148.14449 | 32660 ft | 579 kts | 41° |
| 2026-05-04 07:20 | 40.52973 | 148.21864 | 32650 ft | 579 kts | 41° |
| 2026-05-04 07:20 | 40.58731 | 148.29281 | 32656 ft | 580 kts | 41° |
| 2026-05-04 07:22 | 40.81674 | 148.59026 | 32664 ft | 577 kts | 41° |
| 2026-05-04 07:23 | 40.87382 | 148.66474 | 32668 ft | 576 kts | 41° |
| 2026-05-04 07:23 | 40.93086 | 148.73935 | 32670 ft | 576 kts | 41° |
| 2026-05-04 07:24 | 40.98784 | 148.81408 | 32665 ft | 576 kts | 41° |
| 2026-05-04 07:24 | 41.04470 | 148.88885 | 32675 ft | 576 kts | 41° |
| 2026-05-04 07:26 | 41.26217 | 149.17685 | 32685 ft | 579 kts | 41° |
| 2026-05-04 07:27 | 41.31912 | 149.25281 | 32681 ft | 580 kts | 41° |
| 2026-05-04 07:27 | 41.37613 | 149.32904 | 32697 ft | 580 kts | 41° |
| 2026-05-04 07:28 | 41.43303 | 149.40531 | 32687 ft | 580 kts | 41° |
| 2026-05-04 07:28 | 41.48979 | 149.48159 | 32689 ft | 579 kts | 41° |
| 2026-05-04 07:29 | 41.54617 | 149.55757 | 32705 ft | 578 kts | 41° |
| 2026-05-04 07:29 | 41.60282 | 149.63412 | 32696 ft | 578 kts | 41° |
| 2026-05-04 07:30 | 41.65942 | 149.71078 | 32695 ft | 578 kts | 41° |
| 2026-05-04 07:30 | 41.71587 | 149.78747 | 32710 ft | 578 kts | 41° |
| 2026-05-04 07:31 | 41.77219 | 149.86418 | 32707 ft | 577 kts | 41° |
| 2026-05-04 07:33 | 41.99670 | 150.17198 | 32734 ft | 579 kts | 42° |
| 2026-05-04 07:33 | 42.05300 | 150.24969 | 32720 ft | 579 kts | 42° |
| 2026-05-04 07:34 | 42.10918 | 150.32745 | 32732 ft | 579 kts | 42° |
| 2026-05-04 07:34 | 42.16507 | 150.40500 | 32743 ft | 579 kts | 42° |
| 2026-05-04 07:35 | 42.22125 | 150.48318 | 32743 ft | 581 kts | 42° |
| 2026-05-04 07:35 | 42.27755 | 150.56173 | 32753 ft | 582 kts | 42° |
| 2026-05-04 07:36 | 42.33395 | 150.64064 | 32755 ft | 584 kts | 42° |
| 2026-05-04 07:38 | 42.55934 | 150.95819 | 32760 ft | 586 kts | 42° |
| 2026-05-04 07:38 | 42.61577 | 151.03824 | 32757 ft | 587 kts | 42° |
| 2026-05-04 07:39 | 42.67221 | 151.11853 | 32766 ft | 588 kts | 42° |
| 2026-05-04 07:39 | 42.72843 | 151.19875 | 32768 ft | 589 kts | 42° |
| 2026-05-04 07:40 | 42.78526 | 151.28006 | 32774 ft | 589 kts | 42° |
| 2026-05-04 07:40 | 42.84165 | 151.36098 | 32801 ft | 589 kts | 42° |
| 2026-05-04 07:41 | 42.89775 | 151.44169 | 32780 ft | 590 kts | 42° |
| 2026-05-04 07:41 | 42.95417 | 151.52310 | 32782 ft | 590 kts | 41° |
| 2026-05-04 07:42 | 43.01049 | 151.60460 | 32773 ft | 590 kts | 41° |
| 2026-05-04 07:42 | 43.06677 | 151.68626 | 32781 ft | 590 kts | 41° |
| 2026-05-04 07:43 | 43.12302 | 151.76814 | 32799 ft | 590 kts | 41° |
| 2026-05-04 07:43 | 43.17886 | 151.84965 | 32813 ft | 590 kts | 41° |
| 2026-05-04 07:44 | 43.23502 | 151.93183 | 32791 ft | 591 kts | 41° |
| 2026-05-04 07:44 | 43.29121 | 152.01434 | 32800 ft | 591 kts | 41° |
| 2026-05-04 07:45 | 43.34727 | 152.09685 | 32798 ft | 591 kts | 41° |
| 2026-05-04 07:45 | 43.40325 | 152.17950 | 32795 ft | 591 kts | 41° |
| 2026-05-04 07:46 | 43.45923 | 152.26242 | 32804 ft | 590 kts | 41° |
| 2026-05-04 07:46 | 43.51473 | 152.34486 | 32834 ft | 590 kts | 41° |
| 2026-05-04 07:47 | 43.57055 | 152.42800 | 32811 ft | 590 kts | 41° |
| 2026-05-04 07:49 | 43.79191 | 152.76016 | 32811 ft | 585 kts | 41° |
| 2026-05-04 07:49 | 43.84693 | 152.84331 | 32814 ft | 585 kts | 41° |
| 2026-05-04 07:50 | 43.90181 | 152.92652 | 32825 ft | 584 kts | 41° |
| 2026-05-04 07:50 | 43.95652 | 153.00970 | 32824 ft | 583 kts | 41° |
| 2026-05-04 07:51 | 44.01126 | 153.09317 | 32826 ft | 583 kts | 41° |
| 2026-05-04 07:51 | 44.06540 | 153.17597 | 32836 ft | 582 kts | 40° |
| 2026-05-04 07:52 | 44.11979 | 153.25941 | 32827 ft | 581 kts | 40° |
| 2026-05-04 07:52 | 44.17415 | 153.34304 | 32850 ft | 580 kts | 40° |
| 2026-05-04 07:54 | 44.38983 | 153.67732 | 32857 ft | 580 kts | 41° |
| 2026-05-04 07:55 | 44.44366 | 153.76137 | 32844 ft | 579 kts | 41° |
| 2026-05-04 07:55 | 44.49736 | 153.84547 | 32847 ft | 579 kts | 41° |
| 2026-05-04 07:56 | 44.55100 | 153.92972 | 32862 ft | 580 kts | 41° |
| 2026-05-04 07:56 | 44.60470 | 154.01435 | 32856 ft | 579 kts | 40° |
| 2026-05-04 07:57 | 44.65784 | 154.09834 | 32866 ft | 578 kts | 41° |
| 2026-05-04 07:57 | 44.71126 | 154.18303 | 32867 ft | 577 kts | 41° |
| 2026-05-04 07:58 | 44.76451 | 154.26769 | 32871 ft | 576 kts | 41° |
| 2026-05-04 07:58 | 44.81726 | 154.35182 | 32866 ft | 576 kts | 41° |
| 2026-05-04 07:59 | 44.87024 | 154.43662 | 32895 ft | 577 kts | 41° |
| 2026-05-04 07:59 | 44.92270 | 154.52243 | 32890 ft | 578 kts | 42° |
| 2026-05-04 08:00 | 44.97501 | 154.60910 | 32881 ft | 578 kts | 42° |
| 2026-05-04 08:02 | 45.18278 | 154.95452 | 32906 ft | 575 kts | 41° |
| 2026-05-04 08:02 | 45.23461 | 155.04125 | 32909 ft | 577 kts | 41° |
| 2026-05-04 08:03 | 45.28642 | 155.12824 | 32895 ft | 576 kts | 42° |
| 2026-05-04 08:03 | 45.33801 | 155.21517 | 32904 ft | 575 kts | 42° |
| 2026-05-04 08:04 | 45.38913 | 155.30154 | 32925 ft | 574 kts | 41° |
| 2026-05-04 08:04 | 45.44048 | 155.38857 | 32912 ft | 573 kts | 42° |
| 2026-05-04 08:05 | 45.49167 | 155.47558 | 32922 ft | 573 kts | 42° |
| 2026-05-04 08:05 | 45.54286 | 155.56286 | 32969 ft | 573 kts | 41° |
| 2026-05-04 08:06 | 45.59400 | 155.65031 | 32931 ft | 574 kts | 42° |
| 2026-05-04 08:06 | 45.64480 | 155.73748 | 32930 ft | 574 kts | 42° |
| 2026-05-04 08:08 | 45.84879 | 156.09031 | 32932 ft | 575 kts | 42° |
| 2026-05-04 08:11 | 46.07681 | 156.49004 | 32943 ft | 575 kts | 42° |
| 2026-05-04 08:11 | 46.15266 | 156.62429 | 32943 ft | 575 kts | 42° |
| 2026-05-04 08:12 | 46.20301 | 156.71377 | 32955 ft | 574 kts | 42° |
| 2026-05-04 08:12 | 46.25328 | 156.80339 | 32973 ft | 574 kts | 42° |
| 2026-05-04 08:13 | 46.30343 | 156.89308 | 32945 ft | 573 kts | 42° |
| 2026-05-04 08:13 | 46.35316 | 156.98231 | 32965 ft | 573 kts | 41° |
| 2026-05-04 08:14 | 46.40321 | 157.07242 | 32946 ft | 572 kts | 41° |
| 2026-05-04 08:16 | 46.59362 | 157.41786 | 32931 ft | 570 kts | 41° |
| 2026-05-04 08:16 | 46.64304 | 157.50822 | 32943 ft | 571 kts | 41° |
| 2026-05-04 08:17 | 46.69222 | 157.59844 | 32949 ft | 571 kts | 41° |
| 2026-05-04 08:17 | 46.74149 | 157.68914 | 32938 ft | 570 kts | 41° |
| 2026-05-04 08:19 | 46.93694 | 158.05186 | 32935 ft | 567 kts | 40° |
| 2026-05-04 08:20 | 46.98559 | 158.14287 | 32929 ft | 568 kts | 40° |
| 2026-05-04 08:20 | 47.03416 | 158.23405 | 32940 ft | 568 kts | 40° |
| 2026-05-04 08:21 | 47.08244 | 158.32498 | 32930 ft | 567 kts | 40° |
| 2026-05-04 08:21 | 47.13086 | 158.41651 | 32927 ft | 567 kts | 40° |
| 2026-05-04 08:22 | 47.17915 | 158.50806 | 32945 ft | 567 kts | 40° |
| 2026-05-04 08:24 | 47.37103 | 158.87493 | 32918 ft | 565 kts | 40° |
| 2026-05-04 08:24 | 47.41879 | 158.96700 | 32912 ft | 565 kts | 40° |
| 2026-05-04 08:25 | 47.46645 | 159.05922 | 32912 ft | 564 kts | 40° |
| 2026-05-04 08:25 | 47.51401 | 159.15153 | 32909 ft | 564 kts | 40° |
| 2026-05-04 08:27 | 47.70343 | 159.52222 | 32899 ft | 567 kts | 40° |
| 2026-05-04 08:28 | 47.75088 | 159.61591 | 32891 ft | 567 kts | 40° |
| 2026-05-04 08:28 | 47.79823 | 159.70975 | 32878 ft | 567 kts | 40° |
| 2026-05-04 08:29 | 47.84555 | 159.80384 | 32900 ft | 567 kts | 40° |
| 2026-05-04 08:31 | 48.03285 | 160.17939 | 32877 ft | 563 kts | 40° |
| 2026-05-04 08:33 | 48.19564 | 160.50996 | 33423 ft | 566 kts | 40° |
| 2026-05-04 08:33 | 48.21889 | 160.55759 | 33804 ft | 565 kts | 40° |
| 2026-05-04 08:35 | 48.37765 | 160.89418 | 34829 ft | 560 kts | 43° |
| 2026-05-04 08:35 | 48.39957 | 160.94248 | 34817 ft | 559 kts | 42° |
| 2026-05-04 08:35 | 48.44363 | 161.03902 | 34812 ft | 558 kts | 42° |
| 2026-05-04 08:37 | 48.59738 | 161.37719 | 34780 ft | 558 kts | 42° |
| 2026-05-04 08:38 | 48.64103 | 161.47411 | 34821 ft | 557 kts | 42° |
| 2026-05-04 08:38 | 48.68456 | 161.57107 | 34776 ft | 556 kts | 42° |
| 2026-05-04 08:40 | 48.85634 | 161.95717 | 34743 ft | 549 kts | 43° |
| 2026-05-04 08:41 | 48.89844 | 162.05266 | 34731 ft | 546 kts | 43° |
| 2026-05-04 08:41 | 48.94063 | 162.14866 | 34734 ft | 545 kts | 43° |
| 2026-05-04 08:42 | 48.98266 | 162.24454 | 34752 ft | 544 kts | 44° |
| 2026-05-04 08:42 | 49.02459 | 162.34065 | 34734 ft | 543 kts | 44° |
| 2026-05-04 08:43 | 49.06624 | 162.43651 | 34725 ft | 542 kts | 44° |
| 2026-05-04 08:43 | 49.10778 | 162.53240 | 34719 ft | 540 kts | 45° |
| 2026-05-04 08:44 | 49.14908 | 162.62809 | 34703 ft | 539 kts | 45° |
| 2026-05-04 08:46 | 49.31333 | 163.01193 | 34703 ft | 540 kts | 47° |
| 2026-05-04 08:46 | 49.35419 | 163.10840 | 34685 ft | 538 kts | 47° |
| 2026-05-04 08:47 | 49.39463 | 163.20418 | 34687 ft | 537 kts | 47° |
| 2026-05-04 08:47 | 49.43521 | 163.30058 | 34724 ft | 536 kts | 49° |
| 2026-05-04 08:48 | 49.47557 | 163.39680 | 34682 ft | 534 kts | 49° |
| 2026-05-04 08:48 | 49.51565 | 163.49276 | 34658 ft | 532 kts | 49° |
| 2026-05-04 08:49 | 49.55545 | 163.58838 | 34663 ft | 529 kts | 49° |
| 2026-05-04 08:50 | 49.69311 | 163.92169 | 34655 ft | 524 kts | 50° |
| 2026-05-04 08:51 | 49.73209 | 164.01683 | 34667 ft | 523 kts | 50° |
| 2026-05-04 08:51 | 49.77094 | 164.11199 | 34638 ft | 522 kts | 51° |
| 2026-05-04 08:52 | 49.80958 | 164.20698 | 34651 ft | 521 kts | 52° |
| 2026-05-04 08:52 | 49.84779 | 164.30130 | 34631 ft | 519 kts | 52° |
| 2026-05-04 08:54 | 49.99933 | 164.67864 | 34618 ft | 511 kts | 52° |
| 2026-05-04 08:55 | 50.03676 | 164.77267 | 34618 ft | 511 kts | 52° |
| 2026-05-04 08:55 | 50.07407 | 164.86673 | 34620 ft | 511 kts | 53° |
| 2026-05-04 09:01 | 50.45401 | 165.85621 | 34599 ft | 501 kts | 55° |
| 2026-05-04 09:01 | 50.48919 | 165.95016 | 34603 ft | 501 kts | 55° |
| 2026-05-04 09:02 | 50.52453 | 166.04486 | 34603 ft | 502 kts | 56° |
| 2026-05-04 09:02 | 50.55965 | 166.13935 | 34591 ft | 501 kts | 56° |
| 2026-05-04 09:03 | 50.58881 | 166.21808 | 34589 ft | 499 kts | 56° |
| 2026-05-04 09:03 | 50.62366 | 166.31248 | 34581 ft | 498 kts | 56° |
| 2026-05-04 09:04 | 50.65840 | 166.40692 | 34585 ft | 497 kts | 56° |
| 2026-05-04 09:04 | 50.69303 | 166.50139 | 34587 ft | 497 kts | 56° |
| 2026-05-04 09:05 | 50.72760 | 166.59606 | 34584 ft | 497 kts | 56° |
| 2026-05-04 09:05 | 50.76190 | 166.69032 | 34581 ft | 497 kts | 56° |
| 2026-05-04 09:06 | 50.79633 | 166.78531 | 34612 ft | 498 kts | 57° |
| 2026-05-04 09:08 | 50.93318 | 167.16641 | 34578 ft | 498 kts | 57° |
| 2026-05-04 09:08 | 50.96720 | 167.26201 | 34586 ft | 498 kts | 57° |
| 2026-05-04 09:09 | 51.00115 | 167.35779 | 34571 ft | 497 kts | 58° |
| 2026-05-04 09:09 | 51.03499 | 167.45366 | 34566 ft | 497 kts | 58° |
| 2026-05-04 09:10 | 51.06873 | 167.54957 | 34573 ft | 496 kts | 58° |
| 2026-05-04 09:10 | 51.10234 | 167.64546 | 34586 ft | 496 kts | 58° |
| 2026-05-04 09:11 | 51.13565 | 167.74086 | 34578 ft | 496 kts | 58° |
| 2026-05-04 09:11 | 51.16907 | 167.83696 | 34560 ft | 495 kts | 58° |
| 2026-05-04 09:12 | 51.20237 | 167.93306 | 34580 ft | 494 kts | 59° |
| 2026-05-04 09:14 | 51.33342 | 168.31493 | 34569 ft | 487 kts | 59° |
| 2026-05-04 09:14 | 51.36573 | 168.40998 | 34572 ft | 486 kts | 59° |
| 2026-05-04 09:15 | 51.39790 | 168.50496 | 34583 ft | 485 kts | 60° |
| 2026-05-04 09:15 | 51.43004 | 168.60021 | 34570 ft | 485 kts | 60° |
| 2026-05-04 09:17 | 51.57306 | 169.02865 | 34569 ft | 475 kts | 60° |
| 2026-05-04 09:18 | 51.60395 | 169.12213 | 34576 ft | 471 kts | 60° |
| 2026-05-04 09:18 | 51.63475 | 169.21565 | 34601 ft | 479 kts | 60° |
| 2026-05-04 09:19 | 51.66597 | 169.31085 | 34593 ft | 479 kts | 60° |
| 2026-05-04 09:19 | 51.69689 | 169.40552 | 34580 ft | 476 kts | 61° |
| 2026-05-04 09:20 | 51.72759 | 169.49990 | 34597 ft | 473 kts | 61° |
| 2026-05-04 09:20 | 51.75805 | 169.59389 | 34595 ft | 472 kts | 60° |
| 2026-05-04 09:21 | 51.78839 | 169.68779 | 34586 ft | 472 kts | 61° |
| 2026-05-04 09:21 | 51.81853 | 169.78149 | 34597 ft | 473 kts | 61° |
| 2026-05-04 09:22 | 51.84887 | 169.87616 | 34592 ft | 474 kts | 61° |
| 2026-05-04 09:22 | 51.87914 | 169.97098 | 34599 ft | 474 kts | 62° |
| 2026-05-04 09:23 | 51.90931 | 170.06588 | 34601 ft | 473 kts | 62° |
| 2026-05-04 09:23 | 51.93929 | 170.16054 | 34600 ft | 471 kts | 62° |
| 2026-05-04 09:25 | 52.05760 | 170.53766 | 34614 ft | 470 kts | 63° |
| 2026-05-04 09:26 | 52.08712 | 170.63267 | 34625 ft | 470 kts | 63° |
| 2026-05-04 09:26 | 52.11786 | 170.72633 | 34633 ft | 469 kts | 57° |
| 2026-05-04 09:27 | 52.15714 | 170.81111 | 34645 ft | 469 kts | 49° |
| 2026-05-04 09:27 | 52.20008 | 170.89115 | 34621 ft | 469 kts | 49° |
| 2026-05-04 09:28 | 52.24300 | 170.97154 | 34648 ft | 469 kts | 50° |
| 2026-05-04 09:28 | 52.28492 | 171.05082 | 34646 ft | 459 kts | 50° |
| 2026-05-04 09:29 | 52.32658 | 171.13024 | 34650 ft | 464 kts | 50° |
| 2026-05-04 09:29 | 52.36883 | 171.21106 | 34652 ft | 466 kts | 50° |
| 2026-05-04 09:30 | 52.41079 | 171.29153 | 34662 ft | 462 kts | 51° |
| 2026-05-04 09:30 | 52.45225 | 171.37132 | 34649 ft | 457 kts | 51° |
| 2026-05-04 09:31 | 52.49303 | 171.45008 | 34661 ft | 458 kts | 51° |
| 2026-05-04 09:31 | 52.53455 | 171.53052 | 34676 ft | 466 kts | 51° |
| 2026-05-04 09:32 | 52.57652 | 171.61197 | 34696 ft | 463 kts | 51° |
| 2026-05-04 09:34 | 52.74327 | 171.93855 | 34684 ft | 464 kts | 51° |
| 2026-05-04 09:34 | 52.78434 | 172.01962 | 34694 ft | 456 kts | 51° |
| 2026-05-04 09:35 | 52.82471 | 172.09961 | 34719 ft | 458 kts | 51° |
| 2026-05-04 09:35 | 52.86590 | 172.18148 | 34725 ft | 462 kts | 52° |
| 2026-05-04 09:37 | 53.02872 | 172.50772 | 34740 ft | 461 kts | 52° |
| 2026-05-04 09:38 | 53.06920 | 172.58938 | 34739 ft | 454 kts | 53° |
| 2026-05-04 09:38 | 53.10909 | 172.67024 | 34752 ft | 450 kts | 53° |
| 2026-05-04 09:39 | 53.14918 | 172.75181 | 34769 ft | 460 kts | 52° |
| 2026-05-04 09:39 | 53.18969 | 172.83446 | 34768 ft | 465 kts | 52° |
| 2026-05-04 09:40 | 53.23040 | 172.91769 | 34763 ft | 460 kts | 53° |
| 2026-05-04 09:40 | 53.27040 | 172.99979 | 34775 ft | 453 kts | 53° |
| 2026-05-04 09:42 | 53.42881 | 173.32778 | 34801 ft | 451 kts | 54° |
| 2026-05-04 09:43 | 53.46848 | 173.41065 | 34822 ft | 459 kts | 53° |
| 2026-05-04 09:43 | 53.50859 | 173.49455 | 34813 ft | 458 kts | 54° |
| 2026-05-04 09:44 | 53.54629 | 173.57836 | 34822 ft | 451 kts | 59° |
| 2026-05-04 09:46 | 53.68271 | 173.93941 | 34838 ft | 458 kts | 60° |
| 2026-05-04 09:46 | 53.71678 | 174.02991 | 34846 ft | 457 kts | 59° |
| 2026-05-04 09:47 | 53.75076 | 174.12051 | 34848 ft | 456 kts | 60° |
| 2026-05-04 09:49 | 53.88512 | 174.48217 | 34863 ft | 454 kts | 60° |
| 2026-05-04 09:51 | 54.00222 | 174.80167 | 34882 ft | 457 kts | 61° |
| 2026-05-04 09:51 | 54.02999 | 174.87806 | 34887 ft | 457 kts | 60° |
| 2026-05-04 09:52 | 54.06338 | 174.97021 | 34899 ft | 457 kts | 61° |
| 2026-05-04 09:52 | 54.09675 | 175.06262 | 34900 ft | 458 kts | 61° |
| 2026-05-04 09:53 | 54.13002 | 175.15513 | 34905 ft | 457 kts | 61° |
| 2026-05-04 09:53 | 54.16318 | 175.24770 | 34902 ft | 456 kts | 61° |
| 2026-05-04 09:54 | 54.19620 | 175.34021 | 34913 ft | 456 kts | 60° |
| 2026-05-04 09:54 | 54.22917 | 175.43287 | 34924 ft | 456 kts | 60° |
| 2026-05-04 09:55 | 54.26207 | 175.52575 | 34924 ft | 456 kts | 61° |
| 2026-05-04 09:55 | 54.29489 | 175.61874 | 34928 ft | 457 kts | 61° |
| 2026-05-04 09:56 | 54.32747 | 175.71139 | 34932 ft | 456 kts | 61° |
| 2026-05-04 09:56 | 54.36020 | 175.80481 | 34941 ft | 457 kts | 61° |
| 2026-05-04 09:57 | 54.39292 | 175.89856 | 34941 ft | 458 kts | 61° |
| 2026-05-04 09:57 | 54.42557 | 175.99249 | 34954 ft | 458 kts | 62° |
| 2026-05-04 09:58 | 54.45816 | 176.08657 | 34944 ft | 457 kts | 61° |
| 2026-05-04 09:58 | 54.49049 | 176.18030 | 34960 ft | 459 kts | 61° |
| 2026-05-04 10:00 | 54.62033 | 176.56032 | 34984 ft | 461 kts | 61° |
| 2026-05-04 10:04 | 54.84631 | 177.23604 | 35004 ft | 460 kts | 62° |
| 2026-05-04 10:04 | 54.87817 | 177.33292 | 35025 ft | 466 kts | 62° |
| 2026-05-04 10:05 | 54.91058 | 177.43188 | 35028 ft | 475 kts | 61° |
| 2026-05-04 10:05 | 54.94314 | 177.53158 | 35004 ft | 471 kts | 62° |
| 2026-05-04 10:06 | 54.97513 | 177.62990 | 35030 ft | 463 kts | 62° |
| 2026-05-04 10:06 | 55.00675 | 177.72761 | 35033 ft | 467 kts | 61° |
| 2026-05-04 10:08 | 55.10409 | 178.03079 | 35047 ft | 482 kts | 62° |
| 2026-05-04 10:08 | 55.12043 | 178.08205 | 35046 ft | 482 kts | 61° |
| 2026-05-04 10:08 | 55.15295 | 178.18443 | 35054 ft | 481 kts | 61° |
| 2026-05-04 10:09 | 55.18532 | 178.28677 | 35057 ft | 480 kts | 62° |
| 2026-05-04 10:09 | 55.21751 | 178.38896 | 35050 ft | 479 kts | 62° |
| 2026-05-04 10:10 | 55.24943 | 178.49074 | 35059 ft | 479 kts | 62° |
| 2026-05-04 10:10 | 55.28145 | 178.59329 | 35064 ft | 480 kts | 61° |
| 2026-05-04 10:11 | 55.31349 | 178.69625 | 35074 ft | 481 kts | 61° |
| 2026-05-04 10:11 | 55.34554 | 178.79953 | 35072 ft | 482 kts | 61° |
| 2026-05-04 10:12 | 55.37771 | 178.90322 | 35079 ft | 483 kts | 61° |
| 2026-05-04 10:12 | 55.40983 | 179.00718 | 35080 ft | 484 kts | 61° |
| 2026-05-04 10:13 | 55.44192 | 179.11156 | 35079 ft | 484 kts | 61° |
| 2026-05-04 10:13 | 55.47374 | 179.21556 | 35088 ft | 485 kts | 62° |
| 2026-05-04 10:14 | 55.50570 | 179.32044 | 35088 ft | 485 kts | 62° |
| 2026-05-04 10:16 | 55.63210 | 179.73999 | 35105 ft | 481 kts | 62° |
| 2026-05-04 10:16 | 55.66334 | 179.84485 | 35106 ft | 481 kts | 62° |
| 2026-05-04 10:17 | 55.69427 | 179.94913 | 35112 ft | 481 kts | 62° |
| 2026-05-04 10:19 | 55.81791 | -179.62936 | 35120 ft | 483 kts | 62° |
| 2026-05-04 10:19 | 55.84878 | -179.52293 | 35125 ft | 484 kts | 62° |
| 2026-05-04 10:20 | 55.87962 | -179.41612 | 35123 ft | 485 kts | 62° |
| 2026-05-04 10:20 | 55.91038 | -179.30908 | 35130 ft | 486 kts | 62° |
| 2026-05-04 10:21 | 55.94110 | -179.20167 | 35131 ft | 486 kts | 63° |
| 2026-05-04 10:21 | 55.97174 | -179.09407 | 35136 ft | 486 kts | 63° |
| 2026-05-04 10:22 | 56.01734 | -178.93298 | 35141 ft | 485 kts | 63° |
| 2026-05-04 10:23 | 56.04771 | -178.82507 | 35142 ft | 485 kts | 62° |
| 2026-05-04 10:25 | 56.16845 | -178.39101 | 35153 ft | 488 kts | 63° |
| 2026-05-04 10:25 | 56.19854 | -178.28153 | 35157 ft | 489 kts | 63° |
| 2026-05-04 10:26 | 56.22854 | -178.17188 | 35155 ft | 489 kts | 63° |
| 2026-05-04 10:26 | 56.25848 | -178.06191 | 35158 ft | 489 kts | 63° |
| 2026-05-04 10:27 | 56.28833 | -177.95174 | 35158 ft | 489 kts | 63° |
| 2026-05-04 10:27 | 56.31787 | -177.84216 | 35164 ft | 490 kts | 63° |
| 2026-05-04 10:28 | 56.34752 | -177.73167 | 35167 ft | 490 kts | 63° |
| 2026-05-04 10:28 | 56.37714 | -177.62075 | 35165 ft | 490 kts | 63° |
| 2026-05-04 10:29 | 56.40648 | -177.51032 | 35168 ft | 491 kts | 63° |
| 2026-05-04 10:29 | 56.43596 | -177.39884 | 35168 ft | 491 kts | 63° |
| 2026-05-04 10:30 | 56.46536 | -177.28711 | 35170 ft | 491 kts | 63° |
| 2026-05-04 10:30 | 56.49447 | -177.17593 | 35175 ft | 492 kts | 63° |
| 2026-05-04 10:31 | 56.52367 | -177.06383 | 35176 ft | 492 kts | 63° |
| 2026-05-04 10:32 | 56.62514 | -176.66990 | 35183 ft | 493 kts | 63° |
| 2026-05-04 10:33 | 56.65394 | -176.55679 | 35183 ft | 493 kts | 63° |
| 2026-05-04 10:33 | 56.68265 | -176.44348 | 35176 ft | 493 kts | 63° |
| 2026-05-04 10:34 | 56.71109 | -176.33065 | 35195 ft | 493 kts | 63° |
| 2026-05-04 10:34 | 56.73960 | -176.21698 | 35194 ft | 493 kts | 63° |
| 2026-05-04 10:35 | 56.76801 | -176.10310 | 35183 ft | 494 kts | 63° |
| 2026-05-04 10:35 | 56.79634 | -175.98899 | 35192 ft | 494 kts | 63° |
| 2026-05-04 10:36 | 56.82461 | -175.87457 | 35200 ft | 495 kts | 63° |
| 2026-05-04 10:36 | 56.85278 | -175.75951 | 35199 ft | 496 kts | 63° |
| 2026-05-04 10:37 | 56.88062 | -175.64490 | 35196 ft | 496 kts | 63° |
| 2026-05-04 10:37 | 56.90855 | -175.52941 | 35197 ft | 497 kts | 63° |
| 2026-05-04 10:39 | 57.00100 | -175.14281 | 35203 ft | 497 kts | 63° |
| 2026-05-04 10:40 | 57.02859 | -175.02610 | 35208 ft | 498 kts | 63° |
| 2026-05-04 10:40 | 57.05607 | -174.90923 | 35198 ft | 498 kts | 63° |
| 2026-05-04 10:41 | 57.08344 | -174.79215 | 35199 ft | 498 kts | 63° |
| 2026-05-04 10:41 | 57.11054 | -174.67564 | 35214 ft | 498 kts | 63° |
| 2026-05-04 10:42 | 57.13768 | -174.55830 | 35207 ft | 498 kts | 63° |
| 2026-05-04 10:42 | 57.16475 | -174.44058 | 35202 ft | 498 kts | 63° |
| 2026-05-04 10:43 | 57.19168 | -174.32286 | 35204 ft | 498 kts | 63° |
| 2026-05-04 10:45 | 57.29801 | -173.85148 | 35203 ft | 497 kts | 64° |
| 2026-05-04 10:45 | 57.32435 | -173.73314 | 35202 ft | 497 kts | 64° |
| 2026-05-04 10:46 | 57.35075 | -173.61484 | 35205 ft | 497 kts | 63° |
| 2026-05-04 10:46 | 57.37746 | -173.49741 | 35208 ft | 497 kts | 63° |
| 2026-05-04 10:47 | 57.40429 | -173.37922 | 35203 ft | 497 kts | 63° |
| 2026-05-04 10:47 | 57.43091 | -173.26088 | 35202 ft | 497 kts | 63° |
| 2026-05-04 10:49 | 57.53613 | -172.78535 | 35208 ft | 498 kts | 64° |
| 2026-05-04 10:50 | 57.56221 | -172.66581 | 35216 ft | 498 kts | 64° |
| 2026-05-04 10:52 | 57.66513 | -172.18717 | 35209 ft | 497 kts | 64° |
| 2026-05-04 10:52 | 57.69057 | -172.06711 | 35224 ft | 497 kts | 64° |
| 2026-05-04 10:54 | 57.79079 | -171.58711 | 35211 ft | 494 kts | 64° |
| 2026-05-04 10:56 | 57.88872 | -171.10683 | 35214 ft | 492 kts | 65° |
| 2026-05-04 10:57 | 57.91290 | -170.98646 | 35223 ft | 492 kts | 65° |
| 2026-05-04 10:57 | 57.93695 | -170.86603 | 35215 ft | 492 kts | 65° |
| 2026-05-04 10:58 | 57.96078 | -170.74623 | 35224 ft | 491 kts | 65° |
| 2026-05-04 10:58 | 57.98617 | -170.62653 | 35216 ft | 491 kts | 64° |
| 2026-05-04 10:59 | 58.01216 | -170.50755 | 35211 ft | 491 kts | 64° |
| 2026-05-04 10:59 | 58.03791 | -170.38829 | 35211 ft | 491 kts | 64° |
| 2026-05-04 11:00 | 58.06338 | -170.26859 | 35212 ft | 491 kts | 65° |
| 2026-05-04 11:02 | 58.16401 | -169.78725 | 35213 ft | 493 kts | 66° |
| 2026-05-04 11:05 | 58.34857 | -168.87382 | 35209 ft | 496 kts | 68° |
| 2026-05-04 11:06 | 58.37281 | -168.75066 | 35202 ft | 496 kts | 68° |
| 2026-05-04 11:06 | 58.39679 | -168.62804 | 35202 ft | 496 kts | 69° |
| 2026-05-04 11:10 | 58.56267 | -167.75816 | 35201 ft | 498 kts | 70° |
| 2026-05-04 11:12 | 58.65481 | -167.25734 | 35190 ft | 499 kts | 71° |
| 2026-05-04 11:12 | 58.67763 | -167.13120 | 35200 ft | 499 kts | 71° |
| 2026-05-04 11:13 | 58.70035 | -167.00496 | 35199 ft | 499 kts | 71° |
| 2026-05-04 11:13 | 58.72317 | -166.87856 | 35199 ft | 500 kts | 71° |
| 2026-05-04 11:16 | 58.83630 | -166.24586 | 35194 ft | 500 kts | 72° |
| 2026-05-04 11:16 | 58.85855 | -166.11871 | 35200 ft | 500 kts | 72° |
| 2026-05-04 11:17 | 58.88070 | -165.99135 | 35191 ft | 500 kts | 72° |
| 2026-05-04 11:19 | 58.96835 | -165.48029 | 35184 ft | 501 kts | 73° |
| 2026-05-04 11:19 | 58.99008 | -165.35143 | 35179 ft | 502 kts | 73° |
| 2026-05-04 11:20 | 59.01151 | -165.22342 | 35177 ft | 502 kts | 73° |
| 2026-05-04 11:20 | 59.03294 | -165.09451 | 35181 ft | 502 kts | 74° |
| 2026-05-04 11:22 | 59.11764 | -164.57548 | 35172 ft | 504 kts | 75° |
| 2026-05-04 11:23 | 59.13838 | -164.44602 | 35153 ft | 504 kts | 75° |
| 2026-05-04 11:25 | 59.21040 | -163.98880 | 35154 ft | 505 kts | 76° |
| 2026-05-04 11:25 | 59.23079 | -163.85717 | 35156 ft | 505 kts | 76° |
| 2026-05-04 11:27 | 59.31758 | -163.28491 | 35152 ft | 507 kts | 77° |
| 2026-05-04 11:28 | 59.33718 | -163.15289 | 35143 ft | 508 kts | 77° |
| 2026-05-04 11:28 | 59.35679 | -163.01980 | 35144 ft | 508 kts | 77° |
| 2026-05-04 11:29 | 59.37627 | -162.88648 | 35125 ft | 508 kts | 78° |
| 2026-05-04 11:29 | 59.39561 | -162.75301 | 35134 ft | 509 kts | 78° |
| 2026-05-04 11:33 | 59.54174 | -161.81776 | 35113 ft | 515 kts | 76° |
| 2026-05-04 11:33 | 59.56392 | -161.68332 | 35133 ft | 516 kts | 77° |
| 2026-05-04 11:34 | 59.58584 | -161.54931 | 35135 ft | 516 kts | 77° |
| 2026-05-04 11:34 | 59.60779 | -161.41417 | 35119 ft | 517 kts | 77° |
| 2026-05-04 11:35 | 59.62963 | -161.27878 | 35159 ft | 517 kts | 77° |
| 2026-05-04 11:35 | 59.65132 | -161.14323 | 35167 ft | 518 kts | 78° |
| 2026-05-04 11:36 | 59.67293 | -161.00713 | 35189 ft | 519 kts | 78° |
| 2026-05-04 11:36 | 59.69444 | -160.87054 | 35175 ft | 520 kts | 78° |
| 2026-05-04 11:37 | 59.71590 | -160.73330 | 35194 ft | 521 kts | 78° |
| 2026-05-04 11:37 | 59.73723 | -160.59583 | 35166 ft | 522 kts | 78° |
| 2026-05-04 11:38 | 59.75830 | -160.45883 | 35189 ft | 523 kts | 79° |
| 2026-05-04 11:38 | 59.77940 | -160.32050 | 35180 ft | 525 kts | 79° |
| 2026-05-04 11:39 | 59.80043 | -160.18157 | 35179 ft | 525 kts | 79° |
| 2026-05-04 11:41 | 59.87289 | -159.69381 | 35115 ft | 525 kts | 79° |
| 2026-05-04 11:41 | 59.89325 | -159.55412 | 35116 ft | 526 kts | 79° |
| 2026-05-04 11:42 | 59.91350 | -159.41396 | 35103 ft | 526 kts | 79° |
| 2026-05-04 11:42 | 59.93360 | -159.27373 | 35108 ft | 526 kts | 80° |
| 2026-05-04 11:43 | 59.95344 | -159.13408 | 35073 ft | 526 kts | 80° |
| 2026-05-04 11:43 | 59.97326 | -158.99341 | 35079 ft | 526 kts | 80° |
| 2026-05-04 11:44 | 59.99291 | -158.85264 | 35080 ft | 526 kts | 80° |
| 2026-05-04 11:44 | 60.01245 | -158.71137 | 35075 ft | 528 kts | 80° |
| 2026-05-04 11:45 | 60.03190 | -158.56945 | 35067 ft | 529 kts | 81° |
| 2026-05-04 11:45 | 60.05107 | -158.42849 | 35077 ft | 528 kts | 81° |
| 2026-05-04 11:46 | 60.07020 | -158.28652 | 35080 ft | 528 kts | 81° |
| 2026-05-04 11:46 | 60.08920 | -158.14425 | 35072 ft | 527 kts | 82° |
| 2026-05-04 11:47 | 60.10799 | -158.00210 | 35083 ft | 528 kts | 82° |
| 2026-05-04 11:47 | 60.12671 | -157.85910 | 35063 ft | 529 kts | 82° |
| 2026-05-04 11:48 | 60.14527 | -157.71604 | 35081 ft | 530 kts | 82° |
| 2026-05-04 11:48 | 60.16369 | -157.57279 | 35068 ft | 530 kts | 82° |
| 2026-05-04 11:49 | 60.18199 | -157.42916 | 35081 ft | 530 kts | 82° |
| 2026-05-04 11:49 | 60.20010 | -157.28563 | 35070 ft | 529 kts | 83° |
| 2026-05-04 11:50 | 60.21790 | -157.14298 | 35074 ft | 529 kts | 83° |
| 2026-05-04 11:50 | 60.23570 | -156.99911 | 35071 ft | 529 kts | 83° |
| 2026-05-04 11:51 | 60.25329 | -156.85550 | 35081 ft | 528 kts | 83° |
| 2026-05-04 11:51 | 60.27072 | -156.71177 | 35074 ft | 528 kts | 83° |
| 2026-05-04 11:52 | 60.28799 | -156.56796 | 35027 ft | 527 kts | 84° |
| 2026-05-04 11:52 | 60.30493 | -156.42547 | 35066 ft | 525 kts | 84° |
| 2026-05-04 11:53 | 60.32179 | -156.28212 | 35075 ft | 525 kts | 84° |
| 2026-05-04 11:53 | 60.33852 | -156.13840 | 35070 ft | 525 kts | 84° |
| 2026-05-04 11:55 | 60.40392 | -155.56203 | 35060 ft | 527 kts | 85° |
| 2026-05-04 11:56 | 60.41992 | -155.41705 | 35065 ft | 528 kts | 85° |
| 2026-05-04 11:56 | 60.43570 | -155.27259 | 35061 ft | 529 kts | 85° |
| 2026-05-04 11:57 | 60.45146 | -155.12689 | 35069 ft | 530 kts | 85° |
| 2026-05-04 11:57 | 60.46709 | -154.98066 | 35066 ft | 530 kts | 85° |
| 2026-05-04 11:58 | 60.48254 | -154.83460 | 35063 ft | 530 kts | 85° |
| 2026-05-04 11:58 | 60.49786 | -154.68819 | 35063 ft | 531 kts | 85° |
| 2026-05-04 11:59 | 60.51161 | -154.54135 | 35074 ft | 528 kts | 88° |
| 2026-05-04 11:59 | 60.52351 | -154.39426 | 35078 ft | 528 kts | 88° |
| 2026-05-04 12:00 | 60.53520 | -154.24773 | 35077 ft | 529 kts | 88° |
| 2026-05-04 12:00 | 60.54715 | -154.09988 | 35067 ft | 530 kts | 88° |
| 2026-05-04 12:01 | 60.55909 | -153.95224 | 35071 ft | 529 kts | 88° |
| 2026-05-04 12:02 | 60.59971 | -153.43307 | 36995 ft | 527 kts | 88° |
| 2026-05-04 12:03 | 60.61085 | -153.28492 | 37085 ft | 530 kts | 88° |
| 2026-05-04 12:03 | 60.62187 | -153.13675 | 37113 ft | 529 kts | 88° |
| 2026-05-04 12:04 | 60.63263 | -152.98946 | 37121 ft | 529 kts | 88° |
| 2026-05-04 12:04 | 60.64332 | -152.84100 | 37121 ft | 530 kts | 88° |
| 2026-05-04 12:05 | 60.65385 | -152.69218 | 37130 ft | 530 kts | 88° |
| 2026-05-04 12:05 | 60.66425 | -152.54301 | 37115 ft | 531 kts | 88° |
| 2026-05-04 12:06 | 60.67448 | -152.39392 | 37062 ft | 532 kts | 88° |
| 2026-05-04 12:06 | 60.68456 | -152.24435 | 37106 ft | 532 kts | 88° |
| 2026-05-04 12:07 | 60.69441 | -152.09546 | 37115 ft | 533 kts | 89° |
| 2026-05-04 12:07 | 60.70419 | -151.94519 | 37114 ft | 535 kts | 89° |
| 2026-05-04 12:08 | 60.71382 | -151.79441 | 37103 ft | 535 kts | 89° |
| 2026-05-04 12:08 | 60.72330 | -151.64350 | 37094 ft | 536 kts | 89° |
| 2026-05-04 12:09 | 60.73252 | -151.49386 | 37072 ft | 536 kts | 89° |
| 2026-05-04 12:09 | 60.74166 | -151.34255 | 37092 ft | 536 kts | 89° |
| 2026-05-04 12:10 | 60.75065 | -151.19087 | 37099 ft | 537 kts | 89° |
| 2026-05-04 12:10 | 60.75942 | -151.03994 | 37101 ft | 538 kts | 89° |
| 2026-05-04 12:11 | 60.76810 | -150.88762 | 37108 ft | 539 kts | 90° |
| 2026-05-04 12:11 | 60.77661 | -150.73513 | 37107 ft | 539 kts | 90° |
| 2026-05-04 12:12 | 60.78495 | -150.58258 | 37107 ft | 539 kts | 90° |
| 2026-05-04 12:12 | 60.79310 | -150.43004 | 37112 ft | 539 kts | 90° |
| 2026-05-04 12:14 | 60.82270 | -149.84607 | 37074 ft | 538 kts | 90° |
| 2026-05-04 12:15 | 60.83003 | -149.69340 | 37057 ft | 537 kts | 90° |
| 2026-05-04 12:15 | 60.83711 | -149.54172 | 37133 ft | 535 kts | 91° |
| 2026-05-04 12:16 | 60.84402 | -149.38946 | 37134 ft | 537 kts | 91° |
| 2026-05-04 12:16 | 60.85081 | -149.23650 | 37133 ft | 539 kts | 91° |
| 2026-05-04 12:17 | 60.85743 | -149.08315 | 37151 ft | 541 kts | 91° |
| 2026-05-04 12:17 | 60.86392 | -148.92946 | 37157 ft | 542 kts | 91° |
| 2026-05-04 12:18 | 60.87017 | -148.77599 | 37189 ft | 544 kts | 91° |
| 2026-05-04 12:18 | 60.87636 | -148.62090 | 37193 ft | 546 kts | 91° |
| 2026-05-04 12:19 | 60.88242 | -148.46481 | 37200 ft | 548 kts | 91° |
| 2026-05-04 12:19 | 60.88828 | -148.30883 | 37190 ft | 548 kts | 92° |
| 2026-05-04 12:20 | 60.89395 | -148.15309 | 37187 ft | 546 kts | 92° |
| 2026-05-04 12:20 | 60.89937 | -147.99776 | 37222 ft | 545 kts | 92° |
| 2026-05-04 12:21 | 60.90465 | -147.84229 | 37217 ft | 544 kts | 92° |
| 2026-05-04 12:21 | 60.90970 | -147.68845 | 37248 ft | 543 kts | 92° |
| 2026-05-04 12:22 | 60.91459 | -147.53339 | 37246 ft | 544 kts | 92° |
| 2026-05-04 12:22 | 60.91933 | -147.37814 | 37252 ft | 544 kts | 92° |
| 2026-05-04 12:23 | 60.92388 | -147.22290 | 37275 ft | 543 kts | 92° |
| 2026-05-04 12:23 | 60.92826 | -147.06744 | 37278 ft | 545 kts | 92° |
| 2026-05-04 12:24 | 60.93246 | -146.91175 | 37282 ft | 546 kts | 92° |
| 2026-05-04 12:24 | 60.93650 | -146.75549 | 37284 ft | 547 kts | 92° |
| 2026-05-04 12:25 | 60.94036 | -146.59914 | 37280 ft | 548 kts | 92° |
| 2026-05-04 12:25 | 60.94406 | -146.44207 | 37271 ft | 549 kts | 92° |
| 2026-05-04 12:26 | 60.94754 | -146.28610 | 37283 ft | 549 kts | 93° |
| 2026-05-04 12:26 | 60.95087 | -146.12928 | 37312 ft | 546 kts | 93° |
| 2026-05-04 12:27 | 60.95403 | -145.97352 | 37303 ft | 545 kts | 93° |
| 2026-05-04 12:27 | 60.95696 | -145.81775 | 37300 ft | 545 kts | 94° |
| 2026-05-04 12:28 | 60.95967 | -145.66185 | 37271 ft | 545 kts | 94° |
| 2026-05-04 12:28 | 60.96222 | -145.50564 | 37243 ft | 546 kts | 93° |
| 2026-05-04 12:29 | 60.96464 | -145.34923 | 37260 ft | 547 kts | 94° |
| 2026-05-04 12:29 | 60.96687 | -145.19250 | 37240 ft | 549 kts | 94° |
| 2026-05-04 12:30 | 60.96895 | -145.03536 | 37285 ft | 549 kts | 94° |
| 2026-05-04 12:30 | 60.97083 | -144.87844 | 37266 ft | 547 kts | 94° |
| 2026-05-04 12:31 | 60.97250 | -144.72307 | 37265 ft | 545 kts | 94° |
| 2026-05-04 12:31 | 60.97398 | -144.56681 | 37280 ft | 546 kts | 94° |
| 2026-05-04 12:32 | 60.97588 | -144.33156 | 37265 ft | 548 kts | 94° |
| 2026-05-04 12:33 | 60.97691 | -144.17444 | 37261 ft | 549 kts | 94° |
| 2026-05-04 12:33 | 60.97780 | -144.01696 | 37253 ft | 550 kts | 94° |
| 2026-05-04 12:34 | 60.97850 | -143.85940 | 37230 ft | 550 kts | 94° |
| 2026-05-04 12:34 | 60.97899 | -143.70177 | 37215 ft | 551 kts | 94° |
| 2026-05-04 12:35 | 60.97930 | -143.54389 | 37250 ft | 551 kts | 94° |
| 2026-05-04 12:35 | 60.97944 | -143.38675 | 37250 ft | 553 kts | 94° |
| 2026-05-04 12:36 | 60.97940 | -143.22836 | 37226 ft | 553 kts | 94° |
| 2026-05-04 12:36 | 60.97916 | -143.06987 | 37246 ft | 552 kts | 94° |
| 2026-05-04 12:37 | 60.97876 | -142.91168 | 37252 ft | 553 kts | 94° |
| 2026-05-04 12:37 | 60.97814 | -142.75343 | 37232 ft | 551 kts | 95° |
| 2026-05-04 12:38 | 60.97734 | -142.59576 | 37257 ft | 551 kts | 95° |
| 2026-05-04 12:38 | 60.97635 | -142.43782 | 37278 ft | 552 kts | 95° |
| 2026-05-04 12:39 | 60.97528 | -142.28075 | 37275 ft | 552 kts | 95° |
| 2026-05-04 12:39 | 60.97385 | -142.12229 | 37263 ft | 553 kts | 95° |
| 2026-05-04 12:40 | 60.97229 | -141.96367 | 37241 ft | 554 kts | 95° |
| 2026-05-04 12:40 | 60.97059 | -141.80475 | 37220 ft | 555 kts | 95° |
| 2026-05-04 12:41 | 60.96873 | -141.64764 | 37203 ft | 547 kts | 95° |
| 2026-05-04 12:41 | 60.96664 | -141.49075 | 37250 ft | 554 kts | 95° |
| 2026-05-04 12:42 | 60.96432 | -141.33094 | 37205 ft | 558 kts | 95° |
| 2026-05-04 12:42 | 60.96186 | -141.17128 | 37219 ft | 558 kts | 95° |
| 2026-05-04 12:43 | 60.95922 | -141.01274 | 37218 ft | 556 kts | 95° |
| 2026-05-04 12:43 | 60.95501 | -140.85396 | 37225 ft | 554 kts | 98° |
| 2026-05-04 12:44 | 60.94843 | -140.69614 | 37231 ft | 554 kts | 99° |
| 2026-05-04 12:44 | 60.94168 | -140.53757 | 37185 ft | 555 kts | 99° |
| 2026-05-04 12:45 | 60.93525 | -140.37981 | 37169 ft | 553 kts | 98° |
| 2026-05-04 12:45 | 60.92884 | -140.22266 | 37170 ft | 551 kts | 98° |
| 2026-05-04 12:46 | 60.92228 | -140.06589 | 37173 ft | 550 kts | 97° |
| 2026-05-04 12:46 | 60.91551 | -139.90952 | 37144 ft | 548 kts | 97° |
| 2026-05-04 12:47 | 60.90855 | -139.75364 | 37188 ft | 549 kts | 98° |
| 2026-05-04 12:47 | 60.90138 | -139.59723 | 37162 ft | 550 kts | 98° |
| 2026-05-04 12:48 | 60.89412 | -139.44178 | 37153 ft | 550 kts | 98° |
| 2026-05-04 12:48 | 60.88661 | -139.28575 | 37184 ft | 547 kts | 98° |
| 2026-05-04 12:49 | 60.87896 | -139.13054 | 37142 ft | 546 kts | 98° |
| 2026-05-04 12:49 | 60.87113 | -138.97530 | 37177 ft | 548 kts | 98° |
| 2026-05-04 12:50 | 60.86307 | -138.81946 | 37191 ft | 552 kts | 98° |
| 2026-05-04 12:50 | 60.85475 | -138.66226 | 37206 ft | 556 kts | 98° |
| 2026-05-04 12:51 | 60.84620 | -138.50383 | 37205 ft | 561 kts | 98° |
| 2026-05-04 12:51 | 60.83746 | -138.34524 | 37221 ft | 564 kts | 99° |
| 2026-05-04 12:52 | 60.82847 | -138.18554 | 37187 ft | 561 kts | 99° |
| 2026-05-04 12:52 | 60.81938 | -138.02770 | 37233 ft | 554 kts | 99° |
| 2026-05-04 12:53 | 60.81010 | -137.87015 | 37237 ft | 558 kts | 99° |
| 2026-05-04 12:53 | 60.80058 | -137.71175 | 37222 ft | 562 kts | 99° |
| 2026-05-04 12:54 | 60.79089 | -137.55373 | 37221 ft | 564 kts | 99° |
| 2026-05-04 12:54 | 60.78095 | -137.39451 | 37211 ft | 564 kts | 99° |
| 2026-05-04 12:55 | 60.77081 | -137.23523 | 37232 ft | 564 kts | 99° |
| 2026-05-04 12:55 | 60.76046 | -137.07593 | 37207 ft | 563 kts | 99° |
| 2026-05-04 12:56 | 60.74999 | -136.91763 | 37223 ft | 561 kts | 99° |
| 2026-05-04 12:56 | 60.73941 | -136.76054 | 37240 ft | 560 kts | 99° |
| 2026-05-04 12:57 | 60.72860 | -136.60280 | 37209 ft | 560 kts | 100° |
| 2026-05-04 12:57 | 60.71760 | -136.44526 | 37234 ft | 559 kts | 99° |
| 2026-05-04 12:58 | 60.70643 | -136.28816 | 37219 ft | 558 kts | 99° |
| 2026-05-04 12:58 | 60.69512 | -136.13155 | 37218 ft | 558 kts | 99° |
| 2026-05-04 12:59 | 60.68361 | -135.97482 | 37235 ft | 558 kts | 99° |
| 2026-05-04 12:59 | 60.67198 | -135.81889 | 37220 ft | 559 kts | 99° |
| 2026-05-04 13:00 | 60.66007 | -135.66212 | 37213 ft | 559 kts | 100° |
| 2026-05-04 13:00 | 60.64795 | -135.50507 | 37184 ft | 560 kts | 99° |
| 2026-05-04 13:01 | 60.63567 | -135.34836 | 37171 ft | 560 kts | 100° |
| 2026-05-04 13:01 | 60.62325 | -135.19163 | 37171 ft | 561 kts | 99° |
| 2026-05-04 13:02 | 60.61320 | -135.06093 | 37155 ft | 561 kts | 97° |
| 2026-05-04 13:02 | 60.60667 | -134.95648 | 37264 ft | 561 kts | 96° |
| 2026-05-04 13:02 | 60.60212 | -134.87742 | 37268 ft | 561 kts | 96° |
| 2026-05-04 13:03 | 60.59449 | -134.74612 | 37239 ft | 562 kts | 96° |
| 2026-05-04 13:03 | 60.58473 | -134.58842 | 37264 ft | 561 kts | 97° |
| 2026-05-04 13:04 | 60.57444 | -134.43055 | 37263 ft | 562 kts | 97° |
| 2026-05-04 13:04 | 60.56392 | -134.27298 | 37265 ft | 562 kts | 97° |
| 2026-05-04 13:05 | 60.55335 | -134.11690 | 37274 ft | 561 kts | 97° |
| 2026-05-04 13:05 | 60.54257 | -133.95996 | 37286 ft | 560 kts | 97° |
| 2026-05-04 13:06 | 60.53161 | -133.80320 | 37282 ft | 560 kts | 98° |
| 2026-05-04 13:06 | 60.52047 | -133.64662 | 37291 ft | 560 kts | 98° |
| 2026-05-04 13:07 | 60.50914 | -133.49022 | 37280 ft | 560 kts | 98° |
| 2026-05-04 13:07 | 60.49763 | -133.33384 | 37292 ft | 560 kts | 98° |
| 2026-05-04 13:08 | 60.48595 | -133.17779 | 37299 ft | 560 kts | 98° |
| 2026-05-04 13:08 | 60.47407 | -133.02167 | 37325 ft | 559 kts | 98° |
| 2026-05-04 13:09 | 60.46210 | -132.86675 | 37303 ft | 560 kts | 98° |
| 2026-05-04 13:09 | 60.44988 | -132.71096 | 37279 ft | 559 kts | 98° |
| 2026-05-04 13:10 | 60.43750 | -132.55554 | 37304 ft | 559 kts | 98° |
| 2026-05-04 13:10 | 60.42496 | -132.40026 | 37288 ft | 560 kts | 98° |
| 2026-05-04 13:11 | 60.41216 | -132.24443 | 37265 ft | 560 kts | 98° |
| 2026-05-04 13:11 | 60.39924 | -132.08911 | 37294 ft | 560 kts | 98° |
| 2026-05-04 13:12 | 60.38621 | -131.93456 | 37307 ft | 560 kts | 98° |
| 2026-05-04 13:12 | 60.37294 | -131.77925 | 37283 ft | 561 kts | 98° |
| 2026-05-04 13:13 | 60.35949 | -131.62418 | 37258 ft | 560 kts | 98° |
| 2026-05-04 13:13 | 60.34586 | -131.46928 | 37264 ft | 560 kts | 98° |
| 2026-05-04 13:14 | 60.33206 | -131.31458 | 37251 ft | 560 kts | 98° |
| 2026-05-04 13:14 | 60.31808 | -131.16003 | 37259 ft | 559 kts | 98° |
| 2026-05-04 13:15 | 60.30394 | -131.00589 | 37251 ft | 559 kts | 98° |
| 2026-05-04 13:15 | 60.28960 | -130.85151 | 37283 ft | 560 kts | 98° |
| 2026-05-04 13:16 | 60.27515 | -130.69801 | 37244 ft | 562 kts | 98° |
| 2026-05-04 13:16 | 60.26035 | -130.54297 | 37235 ft | 562 kts | 98° |
| 2026-05-04 13:17 | 60.24542 | -130.38869 | 37226 ft | 561 kts | 98° |
| 2026-05-04 13:17 | 60.23034 | -130.23447 | 37223 ft | 561 kts | 98° |
| 2026-05-04 13:18 | 60.21508 | -130.08067 | 37238 ft | 560 kts | 98° |
| 2026-05-04 13:18 | 60.19978 | -129.92826 | 37239 ft | 559 kts | 99° |
| 2026-05-04 13:19 | 60.18421 | -129.77509 | 37276 ft | 559 kts | 98° |
| 2026-05-04 13:19 | 60.16846 | -129.62207 | 37243 ft | 559 kts | 98° |
| 2026-05-04 13:20 | 60.15254 | -129.46915 | 37238 ft | 559 kts | 98° |
| 2026-05-04 13:20 | 60.13646 | -129.31659 | 37208 ft | 559 kts | 99° |
| 2026-05-04 13:21 | 60.12022 | -129.16423 | 37194 ft | 558 kts | 99° |
| 2026-05-04 13:21 | 60.10378 | -129.01192 | 37170 ft | 558 kts | 99° |
| 2026-05-04 13:22 | 60.08721 | -128.85987 | 37175 ft | 558 kts | 99° |
| 2026-05-04 13:22 | 60.07249 | -128.70744 | 37230 ft | 557 kts | 96° |
| 2026-05-04 13:23 | 60.05979 | -128.55430 | 37197 ft | 557 kts | 95° |
| 2026-05-04 13:23 | 60.04697 | -128.40231 | 37235 ft | 557 kts | 95° |
| 2026-05-04 13:24 | 60.03340 | -128.24957 | 37224 ft | 558 kts | 96° |
| 2026-05-04 13:24 | 60.01941 | -128.09702 | 37213 ft | 558 kts | 96° |
| 2026-05-04 13:25 | 59.99809 | -127.86829 | 37217 ft | 557 kts | 96° |
| 2026-05-04 13:25 | 59.98372 | -127.71600 | 37223 ft | 557 kts | 96° |
| 2026-05-04 13:26 | 59.96916 | -127.56357 | 37222 ft | 559 kts | 96° |
| 2026-05-04 13:26 | 59.95438 | -127.41102 | 37204 ft | 559 kts | 96° |
| 2026-05-04 13:27 | 59.93954 | -127.25981 | 37208 ft | 558 kts | 96° |
| 2026-05-04 13:27 | 59.92444 | -127.10788 | 37198 ft | 558 kts | 96° |
| 2026-05-04 13:28 | 59.90922 | -126.95643 | 37209 ft | 557 kts | 96° |
| 2026-05-04 13:28 | 59.89384 | -126.80524 | 37198 ft | 556 kts | 96° |
| 2026-05-04 13:29 | 59.87830 | -126.65447 | 37240 ft | 556 kts | 97° |
| 2026-05-04 13:29 | 59.86258 | -126.50368 | 37201 ft | 556 kts | 97° |
| 2026-05-04 13:30 | 59.84669 | -126.35330 | 37203 ft | 555 kts | 96° |
| 2026-05-04 13:30 | 59.83076 | -126.20409 | 37202 ft | 554 kts | 97° |
| 2026-05-04 13:31 | 59.81458 | -126.05431 | 37200 ft | 554 kts | 97° |
| 2026-05-04 13:31 | 59.79825 | -125.90459 | 37205 ft | 554 kts | 97° |
| 2026-05-04 13:32 | 59.78172 | -125.75502 | 37209 ft | 555 kts | 97° |
| 2026-05-04 13:32 | 59.76498 | -125.60521 | 37222 ft | 556 kts | 97° |
| 2026-05-04 13:33 | 59.74809 | -125.45572 | 37207 ft | 555 kts | 97° |
| 2026-05-04 13:33 | 59.73114 | -125.30735 | 37210 ft | 555 kts | 97° |
| 2026-05-04 13:34 | 59.71393 | -125.15834 | 37191 ft | 555 kts | 98° |
| 2026-05-04 13:34 | 59.69659 | -125.00967 | 37183 ft | 554 kts | 98° |
| 2026-05-04 13:35 | 59.67021 | -124.78677 | 37189 ft | 554 kts | 98° |
| 2026-05-04 13:36 | 59.65242 | -124.63837 | 37195 ft | 555 kts | 98° |
| 2026-05-04 13:36 | 59.63445 | -124.48988 | 37163 ft | 555 kts | 98° |
| 2026-05-04 13:37 | 59.61631 | -124.34168 | 37161 ft | 554 kts | 98° |
| 2026-05-04 13:37 | 59.59803 | -124.19393 | 37161 ft | 553 kts | 98° |
| 2026-05-04 13:38 | 59.57960 | -124.04640 | 37163 ft | 553 kts | 98° |
| 2026-05-04 13:38 | 59.56103 | -123.89921 | 37158 ft | 552 kts | 98° |
| 2026-05-04 13:39 | 59.54234 | -123.75243 | 37152 ft | 552 kts | 98° |
| 2026-05-04 13:39 | 59.52361 | -123.60688 | 37147 ft | 552 kts | 98° |
| 2026-05-04 13:40 | 59.50459 | -123.46052 | 37143 ft | 551 kts | 99° |
| 2026-05-04 13:40 | 59.48538 | -123.31409 | 37147 ft | 552 kts | 99° |
| 2026-05-04 13:41 | 59.46601 | -123.16786 | 37150 ft | 552 kts | 99° |
| 2026-05-04 13:41 | 59.44650 | -123.02197 | 37141 ft | 552 kts | 99° |
| 2026-05-04 13:42 | 59.41686 | -122.80288 | 37150 ft | 552 kts | 99° |
| 2026-05-04 13:42 | 59.39689 | -122.65702 | 37183 ft | 555 kts | 99° |
| 2026-05-04 13:43 | 59.37680 | -122.51165 | 37186 ft | 555 kts | 99° |
| 2026-05-04 13:43 | 59.35641 | -122.36550 | 37182 ft | 555 kts | 99° |
| 2026-05-04 13:44 | 59.33589 | -122.21971 | 37190 ft | 555 kts | 99° |
| 2026-05-04 13:44 | 59.31519 | -122.07403 | 37182 ft | 554 kts | 99° |
| 2026-05-04 13:45 | 59.29451 | -121.92971 | 37179 ft | 554 kts | 100° |
| 2026-05-04 13:45 | 59.27354 | -121.78475 | 37239 ft | 554 kts | 99° |
| 2026-05-04 13:46 | 59.25241 | -121.63990 | 37194 ft | 554 kts | 100° |
| 2026-05-04 13:46 | 59.23113 | -121.49535 | 37193 ft | 552 kts | 99° |
| 2026-05-04 13:47 | 59.20976 | -121.35148 | 37186 ft | 551 kts | 100° |
| 2026-05-04 13:47 | 59.18827 | -121.20800 | 37192 ft | 550 kts | 100° |
| 2026-05-04 13:48 | 59.16669 | -121.06508 | 37196 ft | 549 kts | 100° |
| 2026-05-04 13:48 | 59.14492 | -120.92217 | 37198 ft | 549 kts | 100° |
| 2026-05-04 13:49 | 59.12317 | -120.78061 | 37231 ft | 550 kts | 100° |
| 2026-05-04 13:49 | 59.10109 | -120.63809 | 37200 ft | 549 kts | 100° |
| 2026-05-04 13:50 | 59.07895 | -120.49646 | 37202 ft | 547 kts | 100° |
| 2026-05-04 13:50 | 59.05669 | -120.35513 | 37199 ft | 546 kts | 100° |
| 2026-05-04 13:51 | 59.03813 | -120.23808 | 37199 ft | 545 kts | 100° |
| 2026-05-04 13:51 | 59.01570 | -120.09760 | 37215 ft | 545 kts | 100° |
| 2026-05-04 13:52 | 58.98288 | -119.88665 | 37263 ft | 542 kts | 98° |
| 2026-05-04 13:53 | 58.96331 | -119.74569 | 37214 ft | 540 kts | 98° |
| 2026-05-04 13:53 | 58.94375 | -119.60526 | 37214 ft | 538 kts | 98° |
| 2026-05-04 13:54 | 58.91376 | -119.39699 | 37224 ft | 537 kts | 98° |
| 2026-05-04 13:55 | 58.88318 | -119.18877 | 37216 ft | 536 kts | 98° |
| 2026-05-04 13:55 | 58.85232 | -118.98096 | 37249 ft | 537 kts | 99° |
| 2026-05-04 13:56 | 58.83152 | -118.84231 | 37220 ft | 537 kts | 99° |
| 2026-05-04 13:57 | 58.80003 | -118.63469 | 37214 ft | 537 kts | 100° |
| 2026-05-04 13:58 | 58.75754 | -118.35842 | 37212 ft | 537 kts | 100° |
| 2026-05-04 13:58 | 58.72546 | -118.15281 | 37263 ft | 536 kts | 100° |
| 2026-05-04 13:59 | 58.70378 | -118.01518 | 37204 ft | 536 kts | 101° |
| 2026-05-04 14:00 | 58.67111 | -117.80995 | 37213 ft | 535 kts | 101° |
| 2026-05-04 14:00 | 58.63819 | -117.60551 | 37216 ft | 534 kts | 101° |
| 2026-05-04 14:01 | 58.61611 | -117.46973 | 37209 ft | 533 kts | 101° |
| 2026-05-04 14:02 | 58.58273 | -117.26633 | 37278 ft | 533 kts | 101° |
| 2026-05-04 14:02 | 58.56029 | -117.13074 | 37173 ft | 534 kts | 102° |
| 2026-05-04 14:03 | 58.53763 | -116.99519 | 37181 ft | 534 kts | 102° |
| 2026-05-04 14:03 | 58.51499 | -116.86086 | 37190 ft | 534 kts | 102° |
| 2026-05-04 14:04 | 58.48058 | -116.65828 | 37209 ft | 534 kts | 102° |
| 2026-05-04 14:04 | 58.45743 | -116.52314 | 37212 ft | 535 kts | 102° |
| 2026-05-04 14:05 | 58.42239 | -116.32055 | 37221 ft | 537 kts | 102° |
| 2026-05-04 14:06 | 58.39879 | -116.18538 | 37209 ft | 537 kts | 102° |
| 2026-05-04 14:06 | 58.37502 | -116.05028 | 37207 ft | 537 kts | 102° |
| 2026-05-04 14:07 | 58.35112 | -115.91542 | 37204 ft | 537 kts | 103° |
| 2026-05-04 14:07 | 58.32728 | -115.78183 | 37202 ft | 536 kts | 103° |
| 2026-05-04 14:08 | 58.30301 | -115.64682 | 37202 ft | 536 kts | 103° |
| 2026-05-04 14:08 | 58.27892 | -115.51371 | 37242 ft | 535 kts | 103° |
| 2026-05-04 14:09 | 58.24243 | -115.31406 | 37194 ft | 531 kts | 103° |
| 2026-05-04 14:10 | 58.20605 | -115.11707 | 37192 ft | 524 kts | 104° |
| 2026-05-04 14:10 | 58.18183 | -114.98693 | 37192 ft | 522 kts | 104° |
| 2026-05-04 14:11 | 58.15757 | -114.85746 | 37196 ft | 521 kts | 104° |
| 2026-05-04 14:11 | 58.12113 | -114.66455 | 37196 ft | 522 kts | 104° |
| 2026-05-04 14:12 | 58.09651 | -114.53531 | 37194 ft | 523 kts | 104° |
| 2026-05-04 14:13 | 58.05915 | -114.34096 | 37197 ft | 527 kts | 104° |
| 2026-05-04 14:13 | 58.03391 | -114.21069 | 37204 ft | 529 kts | 104° |
| 2026-05-04 14:14 | 58.00845 | -114.08021 | 37199 ft | 531 kts | 105° |
| 2026-05-04 14:14 | 57.96978 | -113.88370 | 37255 ft | 533 kts | 105° |
| 2026-05-04 14:15 | 57.91803 | -113.62381 | 37198 ft | 529 kts | 105° |
| 2026-05-04 14:16 | 57.87909 | -113.43048 | 37197 ft | 525 kts | 105° |
| 2026-05-04 14:17 | 57.84013 | -113.23878 | 37200 ft | 523 kts | 106° |
| 2026-05-04 14:18 | 57.80093 | -113.04767 | 37237 ft | 523 kts | 106° |
| 2026-05-04 14:19 | 57.74845 | -112.79479 | 37179 ft | 521 kts | 107° |
| 2026-05-04 14:19 | 57.72199 | -112.66844 | 37182 ft | 521 kts | 107° |
| 2026-05-04 14:20 | 57.69545 | -112.54252 | 37173 ft | 520 kts | 107° |
| 2026-05-04 14:20 | 57.66881 | -112.41686 | 37173 ft | 520 kts | 107° |
| 2026-05-04 14:21 | 57.62861 | -112.22874 | 37208 ft | 520 kts | 108° |
| 2026-05-04 14:21 | 57.60167 | -112.10356 | 37161 ft | 520 kts | 108° |
| 2026-05-04 14:22 | 57.57456 | -111.97847 | 37154 ft | 520 kts | 108° |
| 2026-05-04 14:22 | 57.54741 | -111.85389 | 37147 ft | 519 kts | 108° |
| 2026-05-04 14:23 | 57.50672 | -111.66856 | 37153 ft | 518 kts | 108° |
| 2026-05-04 14:24 | 57.47930 | -111.54462 | 37147 ft | 518 kts | 108° |
| 2026-05-04 14:24 | 57.45170 | -111.42053 | 37180 ft | 518 kts | 108° |
| 2026-05-04 14:25 | 57.42402 | -111.29686 | 37148 ft | 519 kts | 109° |
| 2026-05-04 14:25 | 57.38243 | -111.11241 | 37141 ft | 518 kts | 109° |
| 2026-05-04 14:26 | 57.35447 | -110.98933 | 37135 ft | 518 kts | 109° |
| 2026-05-04 14:26 | 57.32642 | -110.86652 | 37139 ft | 517 kts | 109° |
| 2026-05-04 14:27 | 57.29822 | -110.74380 | 37126 ft | 517 kts | 109° |
| 2026-05-04 14:27 | 57.27010 | -110.62213 | 37158 ft | 518 kts | 109° |
| 2026-05-04 14:28 | 57.24169 | -110.49989 | 37122 ft | 518 kts | 109° |
| 2026-05-04 14:28 | 57.21319 | -110.37795 | 37120 ft | 517 kts | 109° |
| 2026-05-04 14:29 | 57.15589 | -110.13488 | 37127 ft | 516 kts | 110° |
| 2026-05-04 14:30 | 57.12707 | -110.01367 | 37122 ft | 516 kts | 110° |
| 2026-05-04 14:31 | 57.08377 | -109.83282 | 37127 ft | 517 kts | 110° |
| 2026-05-04 14:32 | 57.02534 | -109.59113 | 37100 ft | 517 kts | 110° |
| 2026-05-04 14:32 | 56.99590 | -109.47033 | 37107 ft | 517 kts | 110° |
| 2026-05-04 14:33 | 56.96659 | -109.35074 | 37092 ft | 518 kts | 110° |
| 2026-05-04 14:33 | 56.93694 | -109.23044 | 37096 ft | 518 kts | 110° |
| 2026-05-04 14:34 | 56.90716 | -109.11027 | 37091 ft | 518 kts | 110° |
| 2026-05-04 14:34 | 56.87727 | -108.99030 | 37089 ft | 518 kts | 110° |
| 2026-05-04 14:35 | 56.84725 | -108.87049 | 37084 ft | 518 kts | 111° |
| 2026-05-04 14:35 | 56.81712 | -108.75089 | 37063 ft | 517 kts | 111° |
| 2026-05-04 14:36 | 56.78701 | -108.63197 | 37068 ft | 516 kts | 111° |
| 2026-05-04 14:36 | 56.75693 | -108.51383 | 37063 ft | 516 kts | 111° |
| 2026-05-04 14:37 | 56.72657 | -108.39523 | 37056 ft | 517 kts | 111° |
| 2026-05-04 14:37 | 56.69606 | -108.27662 | 37063 ft | 517 kts | 111° |
| 2026-05-04 14:38 | 56.66541 | -108.15815 | 37045 ft | 517 kts | 111° |
| 2026-05-04 14:38 | 56.63467 | -108.03998 | 37046 ft | 516 kts | 111° |
| 2026-05-04 14:39 | 56.60911 | -107.94216 | 37031 ft | 516 kts | 111° |
| 2026-05-04 14:39 | 56.57822 | -107.82448 | 37039 ft | 516 kts | 111° |
| 2026-05-04 14:40 | 56.53164 | -107.64824 | 37017 ft | 516 kts | 112° |
| 2026-05-04 14:40 | 56.50063 | -107.53166 | 37034 ft | 517 kts | 112° |
| 2026-05-04 14:41 | 56.46927 | -107.41438 | 37023 ft | 517 kts | 112° |
| 2026-05-04 14:42 | 56.40621 | -107.18036 | 37019 ft | 518 kts | 112° |
| 2026-05-04 14:42 | 56.37452 | -107.06364 | 37016 ft | 518 kts | 112° |
| 2026-05-04 14:43 | 56.34265 | -106.94689 | 37008 ft | 518 kts | 112° |
| 2026-05-04 14:43 | 56.31089 | -106.83113 | 37010 ft | 518 kts | 112° |
| 2026-05-04 14:44 | 56.27879 | -106.71470 | 37004 ft | 518 kts | 112° |
| 2026-05-04 14:44 | 56.24662 | -106.59860 | 37008 ft | 518 kts | 112° |
| 2026-05-04 14:45 | 56.21435 | -106.48272 | 37005 ft | 519 kts | 113° |
| 2026-05-04 14:45 | 56.18212 | -106.36757 | 36998 ft | 519 kts | 113° |
| 2026-05-04 14:46 | 56.14959 | -106.25191 | 37002 ft | 519 kts | 113° |
| 2026-05-04 14:46 | 56.11694 | -106.13635 | 37031 ft | 520 kts | 113° |
| 2026-05-04 14:47 | 56.08397 | -106.02078 | 36992 ft | 520 kts | 114° |
| 2026-05-04 14:47 | 56.04943 | -105.90696 | 36984 ft | 520 kts | 115° |
| 2026-05-04 14:48 | 56.01421 | -105.79385 | 36977 ft | 520 kts | 116° |
| 2026-05-04 14:48 | 55.97910 | -105.68091 | 36978 ft | 519 kts | 115° |
| 2026-05-04 14:49 | 55.94436 | -105.56896 | 36975 ft | 519 kts | 115° |
| 2026-05-04 14:49 | 55.90934 | -105.45637 | 36973 ft | 519 kts | 116° |
| 2026-05-04 14:50 | 55.87419 | -105.34387 | 36974 ft | 519 kts | 116° |
| 2026-05-04 14:50 | 55.83893 | -105.23164 | 36968 ft | 519 kts | 116° |
| 2026-05-04 14:51 | 55.80356 | -105.11966 | 36969 ft | 519 kts | 116° |
| 2026-05-04 14:51 | 55.76806 | -105.00775 | 36970 ft | 519 kts | 116° |
| 2026-05-04 14:52 | 55.73252 | -104.89622 | 36960 ft | 519 kts | 116° |
| 2026-05-04 14:52 | 55.69707 | -104.78549 | 36957 ft | 519 kts | 116° |
| 2026-05-04 14:53 | 55.66131 | -104.67432 | 36978 ft | 520 kts | 117° |
| 2026-05-04 14:53 | 55.62540 | -104.56320 | 36950 ft | 520 kts | 117° |
| 2026-05-04 14:54 | 55.58933 | -104.45210 | 36943 ft | 520 kts | 117° |
| 2026-05-04 14:54 | 55.55324 | -104.34146 | 36920 ft | 520 kts | 117° |
| 2026-05-04 14:55 | 55.51707 | -104.23108 | 36932 ft | 519 kts | 117° |
| 2026-05-04 14:55 | 55.48078 | -104.12084 | 36904 ft | 519 kts | 117° |
| 2026-05-04 14:56 | 55.44442 | -104.01089 | 36923 ft | 519 kts | 117° |
| 2026-05-04 14:56 | 55.40791 | -103.90095 | 36925 ft | 520 kts | 117° |
| 2026-05-04 14:57 | 55.37130 | -103.79125 | 36906 ft | 519 kts | 117° |
| 2026-05-04 14:57 | 55.33484 | -103.68247 | 36908 ft | 519 kts | 118° |
| 2026-05-04 14:58 | 55.29806 | -103.57327 | 36892 ft | 519 kts | 118° |
| 2026-05-04 14:58 | 55.26125 | -103.46442 | 36894 ft | 519 kts | 118° |
| 2026-05-04 14:59 | 55.22429 | -103.35562 | 36888 ft | 519 kts | 118° |
| 2026-05-04 15:00 | 55.16875 | -103.19306 | 36883 ft | 519 kts | 118° |
| 2026-05-04 15:00 | 55.13157 | -103.08486 | 36875 ft | 518 kts | 118° |
| 2026-05-04 15:01 | 55.07606 | -102.92415 | 36862 ft | 517 kts | 118° |
| 2026-05-04 15:01 | 55.03878 | -102.81684 | 36863 ft | 517 kts | 118° |
| 2026-05-04 15:02 | 55.00139 | -102.70965 | 35326 ft | 517 kts | 121° |
| 2026-05-04 15:02 | 54.98277 | -102.65641 | 36972 ft | 517 kts | 118° |
| 2026-05-04 15:02 | 54.96399 | -102.60285 | 36928 ft | 516 kts | 119° |
| 2026-05-04 15:03 | 54.94554 | -102.55048 | 36896 ft | 500 kts | 119° |
| 2026-05-04 15:03 | 54.92759 | -102.49964 | 36847 ft | 485 kts | 119° |
| 2026-05-04 15:03 | 54.91019 | -102.45048 | 36833 ft | 470 kts | 119° |
| 2026-05-04 15:03 | 54.89315 | -102.40235 | 36878 ft | 467 kts | 119° |
| 2026-05-04 15:04 | 54.85893 | -102.30571 | 36857 ft | 470 kts | 119° |
| 2026-05-04 15:04 | 54.82479 | -102.20974 | 36843 ft | 469 kts | 119° |
| 2026-05-04 15:05 | 54.79040 | -102.11353 | 36839 ft | 469 kts | 119° |
| 2026-05-04 15:05 | 54.75600 | -102.01770 | 36852 ft | 467 kts | 119° |
| 2026-05-04 15:06 | 54.72161 | -101.92228 | 36846 ft | 466 kts | 120° |
| 2026-05-04 15:07 | 54.67008 | -101.78000 | 36822 ft | 464 kts | 120° |
| 2026-05-04 15:07 | 54.63601 | -101.68636 | 36832 ft | 463 kts | 120° |
| 2026-05-04 15:08 | 54.60171 | -101.59242 | 36832 ft | 463 kts | 120° |
| 2026-05-04 15:08 | 54.56733 | -101.49862 | 36836 ft | 463 kts | 120° |
| 2026-05-04 15:09 | 54.53280 | -101.40480 | 36823 ft | 464 kts | 120° |
| 2026-05-04 15:09 | 54.49807 | -101.31078 | 36832 ft | 465 kts | 120° |
| 2026-05-04 15:10 | 54.44573 | -101.16975 | 36816 ft | 466 kts | 120° |
| 2026-05-04 15:11 | 54.39342 | -101.02961 | 36819 ft | 466 kts | 121° |
| 2026-05-04 15:11 | 54.35830 | -100.93597 | 36816 ft | 466 kts | 121° |
| 2026-05-04 15:12 | 54.32320 | -100.84273 | 36812 ft | 466 kts | 121° |
| 2026-05-04 15:12 | 54.28794 | -100.74942 | 36809 ft | 465 kts | 121° |
| 2026-05-04 15:13 | 54.25272 | -100.65653 | 36805 ft | 465 kts | 121° |
| 2026-05-04 15:13 | 54.21747 | -100.56394 | 36791 ft | 465 kts | 121° |
| 2026-05-04 15:14 | 54.18234 | -100.47199 | 36783 ft | 464 kts | 121° |
| 2026-05-04 15:14 | 54.14695 | -100.37972 | 36781 ft | 464 kts | 121° |
| 2026-05-04 15:15 | 54.11160 | -100.28788 | 36782 ft | 463 kts | 121° |
| 2026-05-04 15:15 | 54.07623 | -100.19628 | 36783 ft | 463 kts | 121° |
| 2026-05-04 15:16 | 54.02305 | -100.05917 | 36764 ft | 463 kts | 122° |
| 2026-05-04 15:17 | 53.97299 | -99.91929 | 36765 ft | 463 kts | 117° |
| 2026-05-04 15:17 | 53.92620 | -99.77528 | 36750 ft | 465 kts | 117° |
| 2026-05-04 15:18 | 53.89474 | -99.67929 | 36740 ft | 466 kts | 117° |
| 2026-05-04 15:19 | 53.84735 | -99.53602 | 36727 ft | 466 kts | 117° |
| 2026-05-04 15:19 | 53.79950 | -99.39236 | 36727 ft | 466 kts | 118° |
| 2026-05-04 15:20 | 53.76753 | -99.29684 | 36711 ft | 465 kts | 118° |
| 2026-05-04 15:20 | 53.73560 | -99.20178 | 36697 ft | 464 kts | 118° |
| 2026-05-04 15:21 | 53.70391 | -99.10782 | 36699 ft | 463 kts | 118° |
| 2026-05-04 15:22 | 53.65602 | -98.96647 | 36688 ft | 461 kts | 118° |
| 2026-05-04 15:22 | 53.60803 | -98.82564 | 36701 ft | 462 kts | 118° |
| 2026-05-04 15:23 | 53.57607 | -98.73226 | 36702 ft | 464 kts | 118° |
| 2026-05-04 15:23 | 53.54366 | -98.63794 | 36689 ft | 467 kts | 118° |
| 2026-05-04 15:24 | 53.47825 | -98.44878 | 36672 ft | 468 kts | 118° |
| 2026-05-04 15:25 | 53.44543 | -98.35436 | 36683 ft | 467 kts | 119° |
| 2026-05-04 15:26 | 53.39617 | -98.21333 | 36696 ft | 466 kts | 119° |
| 2026-05-04 15:26 | 53.34713 | -98.07376 | 36678 ft | 465 kts | 119° |
| 2026-05-04 15:27 | 53.29769 | -97.93375 | 36687 ft | 467 kts | 119° |
| 2026-05-04 15:28 | 53.25347 | -97.80928 | 36664 ft | 468 kts | 119° |
| 2026-05-04 15:29 | 53.19799 | -97.65395 | 36657 ft | 468 kts | 120° |
| 2026-05-04 15:30 | 53.08674 | -97.34535 | 36616 ft | 462 kts | 120° |
| 2026-05-04 15:31 | 53.05338 | -97.25356 | 37128 ft | 463 kts | 120° |
| 2026-05-04 15:31 | 53.03673 | -97.20788 | 37593 ft | 462 kts | 120° |
| 2026-05-04 15:32 | 52.98665 | -97.07091 | 38518 ft | 464 kts | 120° |
| 2026-05-04 15:32 | 52.95269 | -96.97847 | 38583 ft | 473 kts | 121° |
| 2026-05-04 15:34 | 52.86746 | -96.74801 | 38561 ft | 465 kts | 120° |
| 2026-05-04 15:34 | 52.81588 | -96.60949 | 38561 ft | 475 kts | 121° |
| 2026-05-04 15:35 | 52.76371 | -96.47022 | 38563 ft | 478 kts | 121° |
| 2026-05-04 15:36 | 52.71097 | -96.33020 | 38550 ft | 479 kts | 121° |
| 2026-05-04 15:36 | 52.67576 | -96.23714 | 38556 ft | 476 kts | 121° |
| 2026-05-04 15:37 | 52.64072 | -96.14489 | 38545 ft | 473 kts | 121° |
| 2026-05-04 15:37 | 52.60586 | -96.05341 | 38537 ft | 469 kts | 122° |
| 2026-05-04 15:38 | 52.57145 | -95.96344 | 38543 ft | 466 kts | 122° |
| 2026-05-04 15:38 | 52.53688 | -95.87339 | 38545 ft | 465 kts | 122° |
| 2026-05-04 15:39 | 52.50226 | -95.78353 | 38531 ft | 466 kts | 122° |
| 2026-05-04 15:40 | 52.44991 | -95.64823 | 38546 ft | 469 kts | 122° |
| 2026-05-04 15:40 | 52.41496 | -95.55831 | 38529 ft | 472 kts | 122° |
| 2026-05-04 15:41 | 52.37948 | -95.46736 | 38529 ft | 475 kts | 122° |
| 2026-05-04 15:41 | 52.34369 | -95.37589 | 38533 ft | 478 kts | 123° |
| 2026-05-04 15:42 | 52.30771 | -95.28431 | 38514 ft | 476 kts | 123° |
| 2026-05-04 15:42 | 52.27216 | -95.19417 | 38504 ft | 470 kts | 123° |
| 2026-05-04 15:43 | 52.23696 | -95.10519 | 38493 ft | 470 kts | 123° |
| 2026-05-04 15:43 | 52.20141 | -95.01565 | 38489 ft | 470 kts | 123° |
| 2026-05-04 15:44 | 52.16577 | -94.92620 | 38476 ft | 470 kts | 123° |
| 2026-05-04 15:44 | 52.13002 | -94.83678 | 38541 ft | 472 kts | 123° |
| 2026-05-04 15:45 | 52.09398 | -94.74698 | 38530 ft | 474 kts | 123° |
| 2026-05-04 15:45 | 52.05806 | -94.65776 | 38508 ft | 475 kts | 123° |
| 2026-05-04 15:46 | 52.02178 | -94.56795 | 38533 ft | 475 kts | 123° |
| 2026-05-04 15:46 | 51.98543 | -94.47832 | 38509 ft | 475 kts | 124° |
| 2026-05-04 15:47 | 51.94902 | -94.38881 | 38498 ft | 475 kts | 124° |
| 2026-05-04 15:47 | 51.91263 | -94.29968 | 38497 ft | 473 kts | 124° |
| 2026-05-04 15:48 | 51.87648 | -94.21146 | 38481 ft | 472 kts | 124° |
| 2026-05-04 15:48 | 51.82190 | -94.07881 | 38454 ft | 471 kts | 124° |
| 2026-05-04 15:49 | 51.78552 | -93.99079 | 38448 ft | 470 kts | 124° |
| 2026-05-04 15:49 | 51.74910 | -93.90295 | 38445 ft | 470 kts | 124° |
| 2026-05-04 15:50 | 51.71267 | -93.81537 | 38422 ft | 470 kts | 124° |
| 2026-05-04 15:50 | 51.67636 | -93.72842 | 38421 ft | 471 kts | 125° |
| 2026-05-04 15:51 | 51.63964 | -93.64075 | 38398 ft | 473 kts | 125° |
| 2026-05-04 15:51 | 51.60275 | -93.55300 | 38404 ft | 473 kts | 125° |
| 2026-05-04 15:52 | 51.56573 | -93.46524 | 38363 ft | 474 kts | 125° |
| 2026-05-04 15:52 | 51.52880 | -93.37796 | 38368 ft | 474 kts | 125° |
| 2026-05-04 15:53 | 51.49169 | -93.29053 | 38364 ft | 473 kts | 125° |
| 2026-05-04 15:53 | 51.45450 | -93.20324 | 38344 ft | 472 kts | 125° |
| 2026-05-04 15:54 | 51.41737 | -93.11639 | 38344 ft | 472 kts | 125° |
| 2026-05-04 15:54 | 51.38026 | -93.02988 | 38317 ft | 471 kts | 125° |
| 2026-05-04 15:55 | 51.34317 | -92.94368 | 38323 ft | 470 kts | 126° |
| 2026-05-04 15:55 | 51.30603 | -92.85767 | 38300 ft | 469 kts | 126° |
| 2026-05-04 15:56 | 51.26912 | -92.77246 | 38301 ft | 468 kts | 126° |
| 2026-05-04 15:56 | 51.23197 | -92.68700 | 38303 ft | 468 kts | 126° |
| 2026-05-04 15:57 | 51.19475 | -92.60165 | 38298 ft | 469 kts | 126° |
| 2026-05-04 15:57 | 51.15746 | -92.51642 | 38302 ft | 469 kts | 126° |
| 2026-05-04 15:58 | 51.12005 | -92.43120 | 38282 ft | 470 kts | 126° |
| 2026-05-04 15:58 | 51.08251 | -92.34594 | 38285 ft | 470 kts | 126° |
| 2026-05-04 15:59 | 51.04488 | -92.26077 | 38275 ft | 470 kts | 126° |
| 2026-05-04 15:59 | 51.00723 | -92.17582 | 38271 ft | 470 kts | 126° |
| 2026-05-04 16:00 | 50.96953 | -92.09104 | 38271 ft | 469 kts | 126° |
| 2026-05-04 16:00 | 50.93214 | -92.00724 | 38262 ft | 468 kts | 127° |
| 2026-05-04 16:01 | 50.89444 | -91.92301 | 38264 ft | 467 kts | 127° |
| 2026-05-04 16:01 | 50.85682 | -91.83923 | 38253 ft | 466 kts | 127° |
| 2026-05-04 16:02 | 50.81916 | -91.75563 | 38256 ft | 466 kts | 127° |
| 2026-05-04 16:03 | 50.76268 | -91.63075 | 38260 ft | 465 kts | 127° |
| 2026-05-04 16:03 | 50.72503 | -91.54784 | 38260 ft | 465 kts | 127° |
| 2026-05-04 16:04 | 50.68745 | -91.46533 | 38254 ft | 466 kts | 127° |
| 2026-05-04 16:04 | 50.63057 | -91.34097 | 38246 ft | 467 kts | 128° |
| 2026-05-04 16:05 | 50.59251 | -91.25807 | 38253 ft | 467 kts | 128° |
| 2026-05-04 16:06 | 50.53520 | -91.13374 | 38258 ft | 468 kts | 128° |
| 2026-05-04 16:07 | 50.45840 | -90.96802 | 38256 ft | 469 kts | 128° |
| 2026-05-04 16:08 | 50.38153 | -90.80321 | 38255 ft | 469 kts | 128° |
| 2026-05-04 16:09 | 50.28520 | -90.59811 | 38249 ft | 466 kts | 128° |
| 2026-05-04 16:10 | 50.20857 | -90.43611 | 38240 ft | 464 kts | 128° |
| 2026-05-04 16:11 | 50.13179 | -90.27477 | 38240 ft | 463 kts | 129° |
| 2026-05-04 16:12 | 50.01603 | -90.03329 | 38242 ft | 465 kts | 129° |
| 2026-05-04 16:13 | 49.93887 | -89.87207 | 38225 ft | 467 kts | 128° |
| 2026-05-04 16:14 | 49.86145 | -89.71012 | 38236 ft | 467 kts | 129° |
| 2026-05-04 16:16 | 49.76447 | -89.50890 | 38227 ft | 466 kts | 129° |
| 2026-05-04 16:17 | 49.67365 | -89.32189 | 38237 ft | 464 kts | 129° |
| 2026-05-04 16:18 | 49.59595 | -89.16293 | 38234 ft | 466 kts | 129° |
| 2026-05-04 16:19 | 49.49828 | -88.96443 | 38223 ft | 464 kts | 129° |
| 2026-05-04 16:20 | 49.40107 | -88.76834 | 38236 ft | 461 kts | 129° |
| 2026-05-04 16:22 | 49.30357 | -88.57310 | 38240 ft | 460 kts | 130° |
| 2026-05-04 16:23 | 49.18640 | -88.34037 | 38237 ft | 460 kts | 130° |
| 2026-05-04 16:25 | 49.06895 | -88.10910 | 38252 ft | 460 kts | 130° |
| 2026-05-04 16:26 | 48.93120 | -87.84037 | 38251 ft | 461 kts | 130° |
| 2026-05-04 16:28 | 48.83217 | -87.64884 | 38258 ft | 460 kts | 131° |
| 2026-05-04 16:29 | 48.69356 | -87.38304 | 38284 ft | 459 kts | 131° |
| 2026-05-04 16:31 | 48.59414 | -87.19400 | 38294 ft | 460 kts | 131° |
| 2026-05-04 16:32 | 48.47396 | -86.96726 | 38302 ft | 462 kts | 131° |
| 2026-05-04 16:33 | 48.39343 | -86.81640 | 38313 ft | 464 kts | 132° |
| 2026-05-04 16:34 | 48.33262 | -86.70302 | 38332 ft | 464 kts | 132° |
| 2026-05-04 16:35 | 48.21093 | -86.47756 | 38344 ft | 463 kts | 132° |
| 2026-05-04 16:36 | 48.14998 | -86.36535 | 38346 ft | 462 kts | 133° |
| 2026-05-04 16:37 | 48.08895 | -86.25347 | 38345 ft | 462 kts | 133° |
| 2026-05-04 16:38 | 48.00781 | -86.10543 | 38360 ft | 461 kts | 133° |
| 2026-05-04 16:39 | 47.90590 | -85.92064 | 38380 ft | 461 kts | 133° |
| 2026-05-04 16:40 | 47.82417 | -85.77336 | 38397 ft | 463 kts | 133° |
| 2026-05-04 16:41 | 47.72100 | -85.58859 | 38403 ft | 465 kts | 133° |
| 2026-05-04 16:43 | 47.61720 | -85.40391 | 38412 ft | 467 kts | 134° |
| 2026-05-04 16:43 | 47.55495 | -85.29378 | 38432 ft | 467 kts | 134° |
| 2026-05-04 16:45 | 47.42961 | -85.07336 | 38433 ft | 466 kts | 134° |
| 2026-05-04 16:46 | 47.32534 | -84.89137 | 38452 ft | 466 kts | 135° |
| 2026-05-04 16:47 | 47.24116 | -84.74534 | 38427 ft | 468 kts | 135° |
| 2026-05-04 16:48 | 47.15675 | -84.59965 | 38438 ft | 467 kts | 135° |
| 2026-05-04 16:49 | 47.07268 | -84.45537 | 38453 ft | 466 kts | 135° |
| 2026-05-04 16:50 | 46.98807 | -84.31090 | 38463 ft | 466 kts | 135° |
| 2026-05-04 16:51 | 46.92449 | -84.20288 | 38475 ft | 467 kts | 135° |
| 2026-05-04 16:52 | 46.83978 | -84.05957 | 38481 ft | 467 kts | 135° |
| 2026-05-04 16:53 | 46.77588 | -83.95197 | 38481 ft | 467 kts | 135° |
| 2026-05-04 16:54 | 46.69055 | -83.80896 | 38475 ft | 466 kts | 135° |
| 2026-05-04 16:55 | 46.56305 | -83.59663 | 38501 ft | 464 kts | 135° |
| 2026-05-04 16:56 | 46.45656 | -83.42058 | 38515 ft | 463 kts | 135° |
| 2026-05-04 16:57 | 46.39267 | -83.31549 | 38527 ft | 463 kts | 136° |
| 2026-05-04 16:58 | 46.30759 | -83.17617 | 38522 ft | 463 kts | 136° |
| 2026-05-04 17:00 | 46.17885 | -82.96671 | 38554 ft | 466 kts | 136° |
| 2026-05-04 17:01 | 46.07064 | -82.79187 | 38568 ft | 468 kts | 136° |
| 2026-05-04 17:02 | 45.98390 | -82.65253 | 38563 ft | 469 kts | 136° |
| 2026-05-04 17:03 | 45.91852 | -82.54795 | 38535 ft | 468 kts | 136° |
| 2026-05-04 17:03 | 45.86058 | -82.45560 | 38577 ft | 467 kts | 136° |
| 2026-05-04 17:04 | 45.77365 | -82.31765 | 38596 ft | 466 kts | 136° |
| 2026-05-04 17:05 | 45.68653 | -82.18007 | 38593 ft | 466 kts | 136° |
| 2026-05-04 17:06 | 45.62129 | -82.07747 | 38612 ft | 467 kts | 136° |
| 2026-05-04 17:07 | 45.56297 | -81.98602 | 38616 ft | 468 kts | 136° |
| 2026-05-04 17:07 | 45.51160 | -81.90556 | 38615 ft | 470 kts | 136° |
| 2026-05-04 17:08 | 45.44460 | -81.80325 | 38630 ft | 470 kts | 138° |
| 2026-05-04 17:09 | 45.39936 | -81.73694 | 38632 ft | 470 kts | 138° |
| 2026-05-04 17:09 | 45.35381 | -81.67015 | 38639 ft | 470 kts | 138° |
| 2026-05-04 17:10 | 45.24057 | -81.50366 | 38626 ft | 467 kts | 138° |
| 2026-05-04 17:11 | 45.19479 | -81.43666 | 37884 ft | 491 kts | 138° |
| 2026-05-04 17:11 | 45.14537 | -81.36476 | 36490 ft | 525 kts | 138° |
| 2026-05-04 17:12 | 45.11990 | -81.32761 | 35753 ft | 525 kts | 138° |
| 2026-05-04 17:12 | 45.06901 | -81.25331 | 34119 ft | 527 kts | 137° |
| 2026-05-04 17:13 | 44.99187 | -81.14132 | 31123 ft | 532 kts | 137° |
| 2026-05-04 17:14 | 44.91469 | -81.02978 | 28556 ft | 519 kts | 138° |
| 2026-05-04 17:14 | 44.88959 | -80.99356 | 27878 ft | 511 kts | 138° |
| 2026-05-04 17:14 | 44.84041 | -80.92282 | 26587 ft | 498 kts | 138° |
| 2026-05-04 17:15 | 44.81660 | -80.88866 | 25932 ft | 492 kts | 138° |
| 2026-05-04 17:15 | 44.76912 | -80.82069 | 24702 ft | 481 kts | 138° |
| 2026-05-04 17:16 | 44.72257 | -80.75421 | 23503 ft | 472 kts | 139° |
| 2026-05-04 17:16 | 44.65422 | -80.65688 | 21574 ft | 459 kts | 139° |
| 2026-05-04 17:17 | 44.63190 | -80.62516 | 20970 ft | 453 kts | 139° |
| 2026-05-04 17:17 | 44.56660 | -80.53259 | 19269 ft | 439 kts | 138° |
| 2026-05-04 17:18 | 44.54515 | -80.50228 | 18701 ft | 435 kts | 138° |
| 2026-05-04 17:18 | 44.50288 | -80.44257 | 17547 ft | 427 kts | 138° |
| 2026-05-04 17:19 | 44.46141 | -80.38413 | 16369 ft | 419 kts | 138° |
| 2026-05-04 17:19 | 44.42072 | -80.32690 | 15268 ft | 409 kts | 138° |
| 2026-05-04 17:20 | 44.38115 | -80.27138 | 14194 ft | 401 kts | 139° |
| 2026-05-04 17:20 | 44.34205 | -80.21663 | 13113 ft | 394 kts | 139° |
| 2026-05-04 17:20 | 44.32276 | -80.18966 | 12540 ft | 391 kts | 139° |
| 2026-05-04 17:21 | 44.28474 | -80.13659 | 11485 ft | 382 kts | 139° |
| 2026-05-04 17:21 | 44.24765 | -80.08487 | 10537 ft | 370 kts | 139° |
| 2026-05-04 17:22 | 44.22983 | -80.06002 | 10407 ft | 354 kts | 139° |
| 2026-05-04 17:22 | 44.21275 | -80.03623 | 10256 ft | 340 kts | 139° |
| 2026-05-04 17:23 | 44.16521 | -79.97015 | 9838 ft | 304 kts | 140° |
| 2026-05-04 17:23 | 44.15057 | -79.94986 | 9750 ft | 290 kts | 140° |
| 2026-05-04 17:23 | 44.12228 | -79.91079 | 8955 ft | 289 kts | 140° |
| 2026-05-04 17:24 | 44.10801 | -79.89110 | 8549 ft | 288 kts | 141° |
| 2026-05-04 17:24 | 44.06608 | -79.83321 | 7517 ft | 280 kts | 141° |
| 2026-05-04 17:25 | 44.05229 | -79.81422 | 7157 ft | 278 kts | 142° |
| 2026-05-04 17:25 | 44.02513 | -79.77678 | 6464 ft | 273 kts | 142° |
| 2026-05-04 17:26 | 43.99829 | -79.73987 | 5755 ft | 268 kts | 142° |
| 2026-05-04 17:26 | 43.95920 | -79.68615 | 4794 ft | 256 kts | 143° |
| 2026-05-04 17:27 | 43.93457 | -79.65232 | 4277 ft | 243 kts | 143° |
| 2026-05-04 17:27 | 43.91094 | -79.61996 | 3610 ft | 236 kts | 142° |
| 2026-05-04 17:28 | 43.88778 | -79.58837 | 3072 ft | 228 kts | 141° |
| 2026-05-04 17:29 | 43.85505 | -79.54360 | 2994 ft | 217 kts | 141° |
| 2026-05-04 17:29 | 43.82285 | -79.49973 | 2983 ft | 210 kts | 144° |
| 2026-05-04 17:30 | 43.78736 | -79.50439 | 3009 ft | 187 kts | 220° |
| 2026-05-04 17:31 | 43.76864 | -79.52690 | 2743 ft | 170 kts | 224° |
| 2026-05-04 17:31 | 43.74553 | -79.56028 | 2046 ft | 149 kts | 225° |
| 2026-05-04 17:32 | 43.73117 | -79.58118 | 1647 ft | 147 kts | 224° |
| 2026-05-04 17:33 | 43.71220 | -79.60879 | 1116 ft | 123 kts | 224° |
| 2026-05-04 17:33 | 43.70620 | -79.61749 | 987 ft | 126 kts | 226° |
| 2026-05-04 17:34 | 43.68862 | -79.64311 | 576 ft | 110 kts | 226° |
| 2026-05-04 17:34 | 43.68457 | -79.64896 | 574 ft | 57 kts | 226° |
| 2026-05-04 17:35 | 43.68101 | -79.65041 | 574 ft | 10 kts | 92° |
| 2026-05-04 17:35 | 43.68182 | -79.64888 | 577 ft | 10 kts | 46° |
| 2026-05-04 17:35 | 43.68246 | -79.64795 | 578 ft | 17 kts | 46° |
| 2026-05-04 17:36 | 43.68350 | -79.64646 | 578 ft | 27 kts | 46° |
| 2026-05-04 17:36 | 43.68485 | -79.64450 | 574 ft | 27 kts | 46° |
| 2026-05-04 17:36 | 43.68622 | -79.64249 | 575 ft | 30 kts | 46° |
| 2026-05-04 17:36 | 43.68773 | -79.64031 | 580 ft | 22 kts | 46° |
| 2026-05-04 17:37 | 43.68887 | -79.63866 | 581 ft | 28 kts | 46° |
| 2026-05-04 17:37 | 43.69007 | -79.63693 | 579 ft | 22 kts | 46° |
| 2026-05-04 17:37 | 43.68958 | -79.63517 | 574 ft | 25 kts | 136° |
| 2026-05-04 17:37 | 43.68816 | -79.63332 | 571 ft | 32 kts | 136° |
| 2026-05-04 17:38 | 43.68647 | -79.63111 | 569 ft | 32 kts | 137° |
| 2026-05-04 17:38 | 43.68487 | -79.62907 | 575 ft | 30 kts | 135° |
| 2026-05-04 17:38 | 43.68338 | -79.62705 | 575 ft | 30 kts | 137° |
| 2026-05-04 17:38 | 43.68183 | -79.62513 | 571 ft | 30 kts | 137° |
| 2026-05-04 17:39 | 43.67908 | -79.62116 | 573 ft | 27 kts | 114° |
| 2026-05-04 17:39 | 43.67785 | -79.61923 | 571 ft | 27 kts | 136° |
| 2026-05-04 17:39 | 43.67647 | -79.61747 | 574 ft | 24 kts | 137° |
| 2026-05-04 17:40 | 43.67662 | -79.61615 | 573 ft | 15 kts | 90° |
| 2026-05-04 17:40 | 43.67597 | -79.61499 | 569 ft | 16 kts | 136° |
| 2026-05-04 17:40 | 43.67556 | -79.61390 | 575 ft | 11 kts | 60° |
| 2026-05-04 17:40 | 43.67606 | -79.61328 | 573 ft | 2 kts | 41° |
| 2026-05-04 17:41 | 43.67616 | -79.61316 | 575 ft | 0 kts | 42° |